<?xml version='1.0' encoding='UTF-8'?><gpx version="1.1" creator="JPX - https://github.com/jenetics/jpx" xmlns="http://www.topografix.com/GPX/1/1"><trk><trkseg><trkpt lat="45.759411" lon="8.9681254"><ele>384.42857142857144</ele><time>2026-05-02T06:25:55.046Z</time></trkpt><trkpt lat="45.7593525" lon="8.9681594"><ele>383.8571428571429</ele><time>2026-05-02T06:26:11.135Z</time></trkpt><trkpt lat="45.7592933" lon="8.9681907"><ele>383.2857142857143</ele><time>2026-05-02T06:26:16.693Z</time></trkpt><trkpt lat="45.7592384" lon="8.9682386"><ele>382.7142857142857</ele><time>2026-05-02T06:26:22.233Z</time></trkpt><trkpt lat="45.7591864" lon="8.9682969"><ele>382.14285714285717</ele><time>2026-05-02T06:26:27.489Z</time></trkpt><trkpt lat="45.7591282" lon="8.9683347"><ele>381.57142857142856</ele><time>2026-05-02T06:26:32.807Z</time></trkpt><trkpt lat="45.7590716" lon="8.9683818"><ele>381.0</ele><time>2026-05-02T06:26:36.992Z</time></trkpt><trkpt lat="45.7590175" lon="8.9684393"><ele>380.57142857142856</ele><time>2026-05-02T06:26:43.034Z</time></trkpt><trkpt lat="45.7589525" lon="8.9684514"><ele>380.14285714285717</ele><time>2026-05-02T06:26:47.044Z</time></trkpt><trkpt lat="45.7588875" lon="8.968479"><ele>379.7142857142857</ele><time>2026-05-02T06:26:51.053Z</time></trkpt><trkpt lat="45.7588272" lon="8.9685074"><ele>379.2857142857143</ele><time>2026-05-02T06:26:54.999Z</time></trkpt><trkpt lat="45.758756" lon="8.9685328"><ele>378.8571428571429</ele><time>2026-05-02T06:27:00.046Z</time></trkpt><trkpt lat="45.7586902" lon="8.9685493"><ele>378.42857142857144</ele><time>2026-05-02T06:27:05.026Z</time></trkpt><trkpt lat="45.7586255" lon="8.9685542"><ele>378.0</ele><time>2026-05-02T06:27:10.033Z</time></trkpt><trkpt lat="45.7585601" lon="8.9685801"><ele>377.2857142857143</ele><time>2026-05-02T06:27:14.999Z</time></trkpt><trkpt lat="45.758486" lon="8.968609"><ele>376.57142857142856</ele><time>2026-05-02T06:27:19.937Z</time></trkpt><trkpt lat="45.7584155" lon="8.9686236"><ele>375.8571428571429</ele><time>2026-05-02T06:27:25.193Z</time></trkpt><trkpt lat="45.7583404" lon="8.9686287"><ele>375.1428571428571</ele><time>2026-05-02T06:27:30.375Z</time></trkpt><trkpt lat="45.7582676" lon="8.9686339"><ele>374.42857142857144</ele><time>2026-05-02T06:27:36.546Z</time></trkpt><trkpt lat="45.7581963" lon="8.9686329"><ele>373.7142857142857</ele><time>2026-05-02T06:27:42.833Z</time></trkpt><trkpt lat="45.7581209" lon="8.9686176"><ele>373.0</ele><time>2026-05-02T06:27:47.974Z</time></trkpt><trkpt lat="45.7580553" lon="8.9686155"><ele>373.0</ele><time>2026-05-02T06:27:53.038Z</time></trkpt><trkpt lat="45.7579926" lon="8.9685886"><ele>373.0</ele><time>2026-05-02T06:27:57.026Z</time></trkpt><trkpt lat="45.757935" lon="8.9685517"><ele>373.0</ele><time>2026-05-02T06:28:05.032Z</time></trkpt><trkpt lat="45.7578692" lon="8.968535"><ele>373.0</ele><time>2026-05-02T06:28:15.113Z</time></trkpt><trkpt lat="45.7578003" lon="8.9684806"><ele>373.0</ele><time>2026-05-02T06:28:20.998Z</time></trkpt><trkpt lat="45.757765" lon="8.9683943"><ele>373.0</ele><time>2026-05-02T06:28:25.075Z</time></trkpt><trkpt lat="45.757742" lon="8.9683043"><ele>373.0</ele><time>2026-05-02T06:28:28.066Z</time></trkpt><trkpt lat="45.7577261" lon="8.9681917"><ele>373.7142857142857</ele><time>2026-05-02T06:28:32.999Z</time></trkpt><trkpt lat="45.7577286" lon="8.9680869"><ele>374.42857142857144</ele><time>2026-05-02T06:28:36.994Z</time></trkpt><trkpt lat="45.7577144" lon="8.9679926"><ele>375.1428571428571</ele><time>2026-05-02T06:28:41.189Z</time></trkpt><trkpt lat="45.7577073" lon="8.9678991"><ele>375.8571428571429</ele><time>2026-05-02T06:28:45.959Z</time></trkpt><trkpt lat="45.7577003" lon="8.9678061"><ele>376.57142857142856</ele><time>2026-05-02T06:28:51.917Z</time></trkpt><trkpt lat="45.7576939" lon="8.9676946"><ele>377.2857142857143</ele><time>2026-05-02T06:28:58.035Z</time></trkpt><trkpt lat="45.757689" lon="8.9676044"><ele>378.0</ele><time>2026-05-02T06:29:04.032Z</time></trkpt><trkpt lat="45.7576935" lon="8.967509"><ele>378.2857142857143</ele><time>2026-05-02T06:29:09.303Z</time></trkpt><trkpt lat="45.7576902" lon="8.9674136"><ele>378.57142857142856</ele><time>2026-05-02T06:29:14.974Z</time></trkpt><trkpt lat="45.7576957" lon="8.9673208"><ele>378.8571428571429</ele><time>2026-05-02T06:29:21.599Z</time></trkpt><trkpt lat="45.7576878" lon="8.9672277"><ele>379.1428571428571</ele><time>2026-05-02T06:29:27.998Z</time></trkpt><trkpt lat="45.757672" lon="8.9671401"><ele>379.42857142857144</ele><time>2026-05-02T06:29:35.102Z</time></trkpt><trkpt lat="45.7576429" lon="8.9670448"><ele>379.7142857142857</ele><time>2026-05-02T06:29:41.603Z</time></trkpt><trkpt lat="45.7575946" lon="8.966982"><ele>380.0</ele><time>2026-05-02T06:29:48.015Z</time></trkpt><trkpt lat="45.7575565" lon="8.9668922"><ele>380.0</ele><time>2026-05-02T06:30:03.013Z</time></trkpt><trkpt lat="45.7574908" lon="8.9668643"><ele>380.0</ele><time>2026-05-02T06:30:10.007Z</time></trkpt><trkpt lat="45.7574321" lon="8.9667911"><ele>380.0</ele><time>2026-05-02T06:30:14.016Z</time></trkpt><trkpt lat="45.75742" lon="8.9666966"><ele>380.0</ele><time>2026-05-02T06:30:22.034Z</time></trkpt><trkpt lat="45.7574288" lon="8.9665915"><ele>380.0</ele><time>2026-05-02T06:30:27.988Z</time></trkpt><trkpt lat="45.757488" lon="8.9665131"><ele>380.0</ele><time>2026-05-02T06:30:33.109Z</time></trkpt><trkpt lat="45.7575524" lon="8.9664782"><ele>380.0</ele><time>2026-05-02T06:30:37.998Z</time></trkpt><trkpt lat="45.7576235" lon="8.9664591"><ele>380.42857142857144</ele><time>2026-05-02T06:30:45.092Z</time></trkpt><trkpt lat="45.7576479" lon="8.966373"><ele>380.8571428571429</ele><time>2026-05-02T06:30:56.053Z</time></trkpt><trkpt lat="45.7576704" lon="8.9662825"><ele>381.2857142857143</ele><time>2026-05-02T06:31:04.071Z</time></trkpt><trkpt lat="45.7576778" lon="8.966179"><ele>381.7142857142857</ele><time>2026-05-02T06:31:14.036Z</time></trkpt><trkpt lat="45.7576556" lon="8.966093"><ele>382.1428571428571</ele><time>2026-05-02T06:31:19.998Z</time></trkpt><trkpt lat="45.7576601" lon="8.9659973"><ele>382.57142857142856</ele><time>2026-05-02T06:31:26.063Z</time></trkpt><trkpt lat="45.7576648" lon="8.9659043"><ele>383.0</ele><time>2026-05-02T06:31:30.998Z</time></trkpt><trkpt lat="45.7576726" lon="8.9658009"><ele>383.42857142857144</ele><time>2026-05-02T06:31:36.961Z</time></trkpt><trkpt lat="45.7577055" lon="8.9657166"><ele>383.85714285714283</ele><time>2026-05-02T06:31:43.081Z</time></trkpt><trkpt lat="45.7577187" lon="8.9656192"><ele>384.28571428571433</ele><time>2026-05-02T06:31:49.085Z</time></trkpt><trkpt lat="45.7577046" lon="8.965524"><ele>384.7142857142857</ele><time>2026-05-02T06:31:55.041Z</time></trkpt><trkpt lat="45.7577381" lon="8.9654442"><ele>385.14285714285717</ele><time>2026-05-02T06:32:06.752Z</time></trkpt><trkpt lat="45.7576833" lon="8.9653448"><ele>385.5714285714286</ele><time>2026-05-02T06:32:21.042Z</time></trkpt><trkpt lat="45.7576182" lon="8.9653463"><ele>386.0</ele><time>2026-05-02T06:32:25.974Z</time></trkpt><trkpt lat="45.7575644" lon="8.9653965"><ele>386.66666666666663</ele><time>2026-05-02T06:32:33.072Z</time></trkpt><trkpt lat="45.7575125" lon="8.9654499"><ele>387.3333333333333</ele><time>2026-05-02T06:32:40.221Z</time></trkpt><trkpt lat="45.757439" lon="8.9654779"><ele>388.0</ele><time>2026-05-02T06:32:52.754Z</time></trkpt><trkpt lat="45.757369" lon="8.9654884"><ele>388.66666666666663</ele><time>2026-05-02T06:32:57.934Z</time></trkpt><trkpt lat="45.7572975" lon="8.9654715"><ele>389.3333333333333</ele><time>2026-05-02T06:33:02.047Z</time></trkpt><trkpt lat="45.7571758" lon="8.9655081"><ele>390.0</ele><time>2026-05-02T06:33:05.025Z</time></trkpt><trkpt lat="45.7571108" lon="8.9654911"><ele>390.0</ele><time>2026-05-02T06:33:09.034Z</time></trkpt><trkpt lat="45.7570433" lon="8.9654812"><ele>390.0</ele><time>2026-05-02T06:33:14.074Z</time></trkpt><trkpt lat="45.7569931" lon="8.965393"><ele>390.0</ele><time>2026-05-02T06:33:19.04Z</time></trkpt><trkpt lat="45.7569452" lon="8.9653159"><ele>390.0</ele><time>2026-05-02T06:33:22.179Z</time></trkpt><trkpt lat="45.7569058" lon="8.9652407"><ele>390.0</ele><time>2026-05-02T06:33:26.307Z</time></trkpt><trkpt lat="45.7568842" lon="8.9651423"><ele>390.0</ele><time>2026-05-02T06:33:30.366Z</time></trkpt><trkpt lat="45.7568646" lon="8.9650539"><ele>390.0</ele><time>2026-05-02T06:33:34.579Z</time></trkpt><trkpt lat="45.7568666" lon="8.9649555"><ele>390.2857142857143</ele><time>2026-05-02T06:33:39.794Z</time></trkpt><trkpt lat="45.7568696" lon="8.9648609"><ele>390.57142857142856</ele><time>2026-05-02T06:33:48.014Z</time></trkpt><trkpt lat="45.7568367" lon="8.9647755"><ele>390.8571428571429</ele><time>2026-05-02T06:33:54.999Z</time></trkpt><trkpt lat="45.7567762" lon="8.9647374"><ele>391.1428571428571</ele><time>2026-05-02T06:34:02.972Z</time></trkpt><trkpt lat="45.7567115" lon="8.964738"><ele>391.42857142857144</ele><time>2026-05-02T06:34:13.062Z</time></trkpt><trkpt lat="45.7565974" lon="8.9647361"><ele>391.7142857142857</ele><time>2026-05-02T06:34:25.037Z</time></trkpt><trkpt lat="45.7565308" lon="8.964723"><ele>392.0</ele><time>2026-05-02T06:34:30.014Z</time></trkpt><trkpt lat="45.7564909" lon="8.9647979"><ele>391.2857142857143</ele><time>2026-05-02T06:35:00.041Z</time></trkpt><trkpt lat="45.7564241" lon="8.9648396"><ele>390.57142857142856</ele><time>2026-05-02T06:35:05.999Z</time></trkpt><trkpt lat="45.7563545" lon="8.9649528"><ele>389.8571428571429</ele><time>2026-05-02T06:35:12.05Z</time></trkpt><trkpt lat="45.7563042" lon="8.9650113"><ele>389.1428571428571</ele><time>2026-05-02T06:35:16.059Z</time></trkpt><trkpt lat="45.7562562" lon="8.96509"><ele>388.42857142857144</ele><time>2026-05-02T06:35:22.036Z</time></trkpt><trkpt lat="45.7562146" lon="8.9651644"><ele>387.7142857142857</ele><time>2026-05-02T06:35:28.003Z</time></trkpt><trkpt lat="45.7561705" lon="8.9652319"><ele>387.0</ele><time>2026-05-02T06:35:33.01Z</time></trkpt><trkpt lat="45.7561105" lon="8.9652798"><ele>386.7142857142857</ele><time>2026-05-02T06:35:39.999Z</time></trkpt><trkpt lat="45.7560408" lon="8.9653267"><ele>386.42857142857144</ele><time>2026-05-02T06:35:46.117Z</time></trkpt><trkpt lat="45.7559775" lon="8.9653514"><ele>386.1428571428571</ele><time>2026-05-02T06:35:51Z</time></trkpt><trkpt lat="45.755917" lon="8.9653844"><ele>385.8571428571429</ele><time>2026-05-02T06:35:55.227Z</time></trkpt><trkpt lat="45.7558551" lon="8.9654258"><ele>385.57142857142856</ele><time>2026-05-02T06:36:01.073Z</time></trkpt><trkpt lat="45.7557834" lon="8.9654493"><ele>385.2857142857143</ele><time>2026-05-02T06:36:08.998Z</time></trkpt><trkpt lat="45.7557149" lon="8.9654605"><ele>385.0</ele><time>2026-05-02T06:36:15.047Z</time></trkpt><trkpt lat="45.7556502" lon="8.9654707"><ele>384.85714285714283</ele><time>2026-05-02T06:36:23.064Z</time></trkpt><trkpt lat="45.7555864" lon="8.9654838"><ele>384.7142857142857</ele><time>2026-05-02T06:36:29.021Z</time></trkpt><trkpt lat="45.7555201" lon="8.965481"><ele>384.57142857142856</ele><time>2026-05-02T06:36:34.052Z</time></trkpt><trkpt lat="45.7554492" lon="8.9654655"><ele>384.42857142857144</ele><time>2026-05-02T06:36:40.017Z</time></trkpt><trkpt lat="45.755381" lon="8.9654237"><ele>384.2857142857143</ele><time>2026-05-02T06:36:46.944Z</time></trkpt><trkpt lat="45.7553137" lon="8.9653716"><ele>384.1428571428571</ele><time>2026-05-02T06:36:50.963Z</time></trkpt><trkpt lat="45.7552435" lon="8.9653305"><ele>384.0</ele><time>2026-05-02T06:36:56.053Z</time></trkpt><trkpt lat="45.7551933" lon="8.9652759"><ele>383.85714285714283</ele><time>2026-05-02T06:37:04.075Z</time></trkpt><trkpt lat="45.7551231" lon="8.965245"><ele>383.7142857142857</ele><time>2026-05-02T06:37:14.796Z</time></trkpt><trkpt lat="45.7550592" lon="8.9652761"><ele>383.57142857142856</ele><time>2026-05-02T06:37:22.053Z</time></trkpt><trkpt lat="45.7549977" lon="8.965345"><ele>383.42857142857144</ele><time>2026-05-02T06:37:30.075Z</time></trkpt><trkpt lat="45.7549566" lon="8.9654199"><ele>383.2857142857143</ele><time>2026-05-02T06:37:33.049Z</time></trkpt><trkpt lat="45.7549056" lon="8.9654822"><ele>383.1428571428571</ele><time>2026-05-02T06:37:38.089Z</time></trkpt><trkpt lat="45.7548655" lon="8.9655628"><ele>383.0</ele><time>2026-05-02T06:37:45.076Z</time></trkpt><trkpt lat="45.7548246" lon="8.9656356"><ele>383.0</ele><time>2026-05-02T06:37:52.061Z</time></trkpt><trkpt lat="45.7547882" lon="8.9657231"><ele>383.0</ele><time>2026-05-02T06:37:59.049Z</time></trkpt><trkpt lat="45.754732" lon="8.9657873"><ele>383.0</ele><time>2026-05-02T06:38:06.053Z</time></trkpt><trkpt lat="45.7546944" lon="8.9658649"><ele>383.0</ele><time>2026-05-02T06:38:11.954Z</time></trkpt><trkpt lat="45.7546407" lon="8.965937"><ele>383.0</ele><time>2026-05-02T06:38:18.481Z</time></trkpt><trkpt lat="45.7545843" lon="8.9660081"><ele>383.0</ele><time>2026-05-02T06:38:23.982Z</time></trkpt><trkpt lat="45.7545309" lon="8.9660706"><ele>383.0</ele><time>2026-05-02T06:38:29.148Z</time></trkpt><trkpt lat="45.7544838" lon="8.966134"><ele>382.7142857142857</ele><time>2026-05-02T06:38:35.998Z</time></trkpt><trkpt lat="45.7544166" lon="8.9661706"><ele>382.42857142857144</ele><time>2026-05-02T06:38:40.054Z</time></trkpt><trkpt lat="45.7543555" lon="8.9662281"><ele>382.1428571428571</ele><time>2026-05-02T06:38:44.999Z</time></trkpt><trkpt lat="45.7543009" lon="8.9662731"><ele>381.8571428571429</ele><time>2026-05-02T06:38:49Z</time></trkpt><trkpt lat="45.7542324" lon="8.9662518"><ele>381.5714285714286</ele><time>2026-05-02T06:38:57.326Z</time></trkpt><trkpt lat="45.7541867" lon="8.9661756"><ele>381.2857142857143</ele><time>2026-05-02T06:39:06.124Z</time></trkpt><trkpt lat="45.7541269" lon="8.9661254"><ele>381.0</ele><time>2026-05-02T06:39:14.994Z</time></trkpt><trkpt lat="45.7541558" lon="8.9660295"><ele>381.0</ele><time>2026-05-02T06:39:16.02Z</time></trkpt><trkpt lat="45.754152" lon="8.9659283"><ele>381.0</ele><time>2026-05-02T06:39:21.059Z</time></trkpt><trkpt lat="45.7541186" lon="8.9658462"><ele>381.0</ele><time>2026-05-02T06:39:25.999Z</time></trkpt><trkpt lat="45.7540766" lon="8.9657738"><ele>381.0</ele><time>2026-05-02T06:39:30.91Z</time></trkpt><trkpt lat="45.7540466" lon="8.965691"><ele>381.0</ele><time>2026-05-02T06:39:36.064Z</time></trkpt><trkpt lat="45.7540432" lon="8.9655973"><ele>381.0</ele><time>2026-05-02T06:39:42.019Z</time></trkpt><trkpt lat="45.7540338" lon="8.9655004"><ele>381.0</ele><time>2026-05-02T06:39:47.659Z</time></trkpt><trkpt lat="45.7540215" lon="8.9653993"><ele>381.0</ele><time>2026-05-02T06:39:53.299Z</time></trkpt><trkpt lat="45.7540196" lon="8.9652967"><ele>381.0</ele><time>2026-05-02T06:39:58.974Z</time></trkpt><trkpt lat="45.7540164" lon="8.9652025"><ele>381.0</ele><time>2026-05-02T06:40:04.033Z</time></trkpt><trkpt lat="45.7540113" lon="8.965105"><ele>381.0</ele><time>2026-05-02T06:40:09.999Z</time></trkpt><trkpt lat="45.7540003" lon="8.9650055"><ele>381.0</ele><time>2026-05-02T06:40:15.006Z</time></trkpt><trkpt lat="45.7540029" lon="8.9649076"><ele>381.0</ele><time>2026-05-02T06:40:20.047Z</time></trkpt><trkpt lat="45.7540146" lon="8.964783"><ele>381.0</ele><time>2026-05-02T06:40:29.37Z</time></trkpt><trkpt lat="45.7540208" lon="8.9646869"><ele>382.0</ele><time>2026-05-02T06:40:35.999Z</time></trkpt><trkpt lat="45.7540182" lon="8.964593"><ele>383.0</ele><time>2026-05-02T06:40:43.018Z</time></trkpt><trkpt lat="45.7539704" lon="8.9645298"><ele>384.0</ele><time>2026-05-02T06:40:49.04Z</time></trkpt><trkpt lat="45.7539161" lon="8.9644638"><ele>385.0</ele><time>2026-05-02T06:40:58.999Z</time></trkpt><trkpt lat="45.7538652" lon="8.9643858"><ele>386.0</ele><time>2026-05-02T06:41:06Z</time></trkpt><trkpt lat="45.7538108" lon="8.9643314"><ele>387.0</ele><time>2026-05-02T06:41:10Z</time></trkpt><trkpt lat="45.7537542" lon="8.96428"><ele>388.0</ele><time>2026-05-02T06:41:16.413Z</time></trkpt><trkpt lat="45.7537206" lon="8.9641931"><ele>388.7142857142857</ele><time>2026-05-02T06:41:23.998Z</time></trkpt><trkpt lat="45.7536922" lon="8.9641122"><ele>389.42857142857144</ele><time>2026-05-02T06:41:30.038Z</time></trkpt><trkpt lat="45.7536709" lon="8.9640232"><ele>390.14285714285717</ele><time>2026-05-02T06:41:35.719Z</time></trkpt><trkpt lat="45.7536521" lon="8.9639281"><ele>390.8571428571429</ele><time>2026-05-02T06:41:42.689Z</time></trkpt><trkpt lat="45.7536247" lon="8.963845"><ele>391.57142857142856</ele><time>2026-05-02T06:41:48.012Z</time></trkpt><trkpt lat="45.753603" lon="8.9637437"><ele>392.28571428571433</ele><time>2026-05-02T06:41:53.14Z</time></trkpt><trkpt lat="45.7535944" lon="8.9636367"><ele>393.0</ele><time>2026-05-02T06:41:58.057Z</time></trkpt><trkpt lat="45.7535881" lon="8.9635294"><ele>393.00000000000006</ele><time>2026-05-02T06:42:04.048Z</time></trkpt><trkpt lat="45.753554" lon="8.9634528"><ele>393.0</ele><time>2026-05-02T06:42:07.998Z</time></trkpt><trkpt lat="45.7535199" lon="8.9633757"><ele>393.0</ele><time>2026-05-02T06:42:12.965Z</time></trkpt><trkpt lat="45.753513" lon="8.9632682"><ele>393.0</ele><time>2026-05-02T06:42:19.052Z</time></trkpt><trkpt lat="45.7535323" lon="8.9631707"><ele>393.0</ele><time>2026-05-02T06:42:23.997Z</time></trkpt><trkpt lat="45.7535475" lon="8.9630731"><ele>393.00000000000006</ele><time>2026-05-02T06:42:29.017Z</time></trkpt><trkpt lat="45.753571" lon="8.9629811"><ele>393.0</ele><time>2026-05-02T06:42:34.057Z</time></trkpt><trkpt lat="45.7536106" lon="8.9629078"><ele>392.8571428571429</ele><time>2026-05-02T06:42:38.999Z</time></trkpt><trkpt lat="45.7536428" lon="8.9628145"><ele>392.7142857142857</ele><time>2026-05-02T06:42:45.052Z</time></trkpt><trkpt lat="45.7536766" lon="8.9627348"><ele>392.57142857142856</ele><time>2026-05-02T06:42:52.039Z</time></trkpt><trkpt lat="45.7537252" lon="8.9626771"><ele>392.42857142857144</ele><time>2026-05-02T06:42:56.999Z</time></trkpt><trkpt lat="45.7537776" lon="8.9626195"><ele>392.2857142857143</ele><time>2026-05-02T06:43:03.035Z</time></trkpt><trkpt lat="45.753836" lon="8.9625478"><ele>392.14285714285717</ele><time>2026-05-02T06:43:07.998Z</time></trkpt><trkpt lat="45.7538904" lon="8.9624793"><ele>392.0</ele><time>2026-05-02T06:43:11.997Z</time></trkpt><trkpt lat="45.7539482" lon="8.9624169"><ele>392.0</ele><time>2026-05-02T06:43:15.997Z</time></trkpt><trkpt lat="45.7540029" lon="8.9623561"><ele>392.0</ele><time>2026-05-02T06:43:19.999Z</time></trkpt><trkpt lat="45.7540536" lon="8.962278"><ele>392.0</ele><time>2026-05-02T06:43:23.955Z</time></trkpt><trkpt lat="45.754105" lon="8.9622248"><ele>392.0</ele><time>2026-05-02T06:43:28.234Z</time></trkpt><trkpt lat="45.7541693" lon="8.9621749"><ele>392.0</ele><time>2026-05-02T06:43:36.999Z</time></trkpt><trkpt lat="45.7542283" lon="8.9621184"><ele>392.0</ele><time>2026-05-02T06:43:44.04Z</time></trkpt><trkpt lat="45.7542705" lon="8.962051"><ele>392.0</ele><time>2026-05-02T06:43:49.998Z</time></trkpt><trkpt lat="45.7543183" lon="8.9619705"><ele>392.57142857142856</ele><time>2026-05-02T06:43:56.999Z</time></trkpt><trkpt lat="45.7543771" lon="8.9619368"><ele>393.1428571428571</ele><time>2026-05-02T06:44:04.084Z</time></trkpt><trkpt lat="45.7544324" lon="8.9618903"><ele>393.7142857142857</ele><time>2026-05-02T06:44:11.954Z</time></trkpt><trkpt lat="45.7544985" lon="8.9618456"><ele>394.2857142857143</ele><time>2026-05-02T06:44:20.994Z</time></trkpt><trkpt lat="45.7545528" lon="8.9617915"><ele>394.85714285714283</ele><time>2026-05-02T06:44:27.018Z</time></trkpt><trkpt lat="45.7546082" lon="8.9617332"><ele>395.42857142857144</ele><time>2026-05-02T06:44:33.062Z</time></trkpt><trkpt lat="45.7546664" lon="8.9616864"><ele>396.0</ele><time>2026-05-02T06:44:37.998Z</time></trkpt><trkpt lat="45.7547272" lon="8.9616419"><ele>396.0</ele><time>2026-05-02T06:44:43.091Z</time></trkpt><trkpt lat="45.7547913" lon="8.961628"><ele>396.0</ele><time>2026-05-02T06:44:49.099Z</time></trkpt><trkpt lat="45.7548685" lon="8.961635"><ele>396.0</ele><time>2026-05-02T06:44:54.942Z</time></trkpt><trkpt lat="45.7549375" lon="8.961648"><ele>396.0</ele><time>2026-05-02T06:44:59.998Z</time></trkpt><trkpt lat="45.755012" lon="8.9616546"><ele>396.0</ele><time>2026-05-02T06:45:05.018Z</time></trkpt><trkpt lat="45.7550777" lon="8.9616712"><ele>396.0</ele><time>2026-05-02T06:45:10.058Z</time></trkpt><trkpt lat="45.7551376" lon="8.9617027"><ele>396.0</ele><time>2026-05-02T06:45:20.023Z</time></trkpt><trkpt lat="45.7551727" lon="8.9617868"><ele>396.3333333333333</ele><time>2026-05-02T06:45:28.04Z</time></trkpt><trkpt lat="45.7552407" lon="8.9619086"><ele>396.66666666666663</ele><time>2026-05-02T06:45:36.094Z</time></trkpt><trkpt lat="45.7553117" lon="8.9619419"><ele>397.0</ele><time>2026-05-02T06:45:41.272Z</time></trkpt><trkpt lat="45.7553834" lon="8.9619625"><ele>397.3333333333333</ele><time>2026-05-02T06:45:47.693Z</time></trkpt><trkpt lat="45.7554459" lon="8.9619894"><ele>397.66666666666663</ele><time>2026-05-02T06:45:53.998Z</time></trkpt><trkpt lat="45.7555105" lon="8.9620391"><ele>398.0</ele><time>2026-05-02T06:46:00.097Z</time></trkpt><trkpt lat="45.7555726" lon="8.9620822"><ele>397.99999999999994</ele><time>2026-05-02T06:46:05.025Z</time></trkpt><trkpt lat="45.7556359" lon="8.9621244"><ele>398.0</ele><time>2026-05-02T06:46:09.971Z</time></trkpt><trkpt lat="45.7556984" lon="8.9621746"><ele>398.0</ele><time>2026-05-02T06:46:16.032Z</time></trkpt><trkpt lat="45.7557707" lon="8.9621777"><ele>398.0</ele><time>2026-05-02T06:46:24.998Z</time></trkpt><trkpt lat="45.7558393" lon="8.962197"><ele>397.99999999999994</ele><time>2026-05-02T06:46:30.006Z</time></trkpt><trkpt lat="45.7558834" lon="8.962115"><ele>398.0</ele><time>2026-05-02T06:46:43.064Z</time></trkpt><trkpt lat="45.7559566" lon="8.9620008"><ele>397.99999999999994</ele><time>2026-05-02T06:46:50.714Z</time></trkpt><trkpt lat="45.7559965" lon="8.9619155"><ele>398.0</ele><time>2026-05-02T06:46:54.998Z</time></trkpt><trkpt lat="45.7560424" lon="8.9618488"><ele>398.0</ele><time>2026-05-02T06:47:00.051Z</time></trkpt><trkpt lat="45.7561003" lon="8.9617935"><ele>398.0</ele><time>2026-05-02T06:47:05.98Z</time></trkpt><trkpt lat="45.7561639" lon="8.9617421"><ele>398.0</ele><time>2026-05-02T06:47:12.042Z</time></trkpt><trkpt lat="45.7562292" lon="8.9616864"><ele>397.99999999999994</ele><time>2026-05-02T06:47:21.091Z</time></trkpt><trkpt lat="45.7562994" lon="8.961615"><ele>398.0</ele><time>2026-05-02T06:47:24.069Z</time></trkpt><trkpt lat="45.7563412" lon="8.9615418"><ele>398.57142857142856</ele><time>2026-05-02T06:47:30.025Z</time></trkpt><trkpt lat="45.7563992" lon="8.9614806"><ele>399.1428571428571</ele><time>2026-05-02T06:47:37.094Z</time></trkpt><trkpt lat="45.7564543" lon="8.9614335"><ele>399.71428571428567</ele><time>2026-05-02T06:47:42.976Z</time></trkpt><trkpt lat="45.7565101" lon="8.9613631"><ele>400.2857142857143</ele><time>2026-05-02T06:47:48.007Z</time></trkpt><trkpt lat="45.7565645" lon="8.9612985"><ele>400.8571428571429</ele><time>2026-05-02T06:47:53.999Z</time></trkpt><trkpt lat="45.7566129" lon="8.9612312"><ele>401.4285714285714</ele><time>2026-05-02T06:48:01.065Z</time></trkpt><trkpt lat="45.7566787" lon="8.961203"><ele>402.0</ele><time>2026-05-02T06:48:07.094Z</time></trkpt><trkpt lat="45.7567448" lon="8.9611389"><ele>402.0</ele><time>2026-05-02T06:48:11.03Z</time></trkpt><trkpt lat="45.7568078" lon="8.9610848"><ele>402.0</ele><time>2026-05-02T06:48:14.939Z</time></trkpt><trkpt lat="45.7568652" lon="8.9610309"><ele>402.0</ele><time>2026-05-02T06:48:19.048Z</time></trkpt><trkpt lat="45.7569235" lon="8.9609727"><ele>402.0</ele><time>2026-05-02T06:48:25.004Z</time></trkpt><trkpt lat="45.7569817" lon="8.9609217"><ele>402.0</ele><time>2026-05-02T06:48:31.997Z</time></trkpt><trkpt lat="45.7570357" lon="8.9608701"><ele>402.0</ele><time>2026-05-02T06:48:37.081Z</time></trkpt><trkpt lat="45.7570948" lon="8.9608215"><ele>402.0</ele><time>2026-05-02T06:48:42.07Z</time></trkpt><trkpt lat="45.7571471" lon="8.960759"><ele>402.4285714285714</ele><time>2026-05-02T06:48:48.12Z</time></trkpt><trkpt lat="45.7571971" lon="8.9606786"><ele>402.8571428571429</ele><time>2026-05-02T06:48:53.999Z</time></trkpt><trkpt lat="45.7572453" lon="8.9606179"><ele>403.2857142857143</ele><time>2026-05-02T06:48:59.01Z</time></trkpt><trkpt lat="45.7572942" lon="8.9605501"><ele>403.71428571428567</ele><time>2026-05-02T06:49:03.031Z</time></trkpt><trkpt lat="45.7573379" lon="8.960471"><ele>404.1428571428571</ele><time>2026-05-02T06:49:08.071Z</time></trkpt><trkpt lat="45.7574052" lon="8.9604298"><ele>404.57142857142856</ele><time>2026-05-02T06:49:15.034Z</time></trkpt><trkpt lat="45.7574754" lon="8.9603924"><ele>405.0</ele><time>2026-05-02T06:49:22.045Z</time></trkpt><trkpt lat="45.7575062" lon="8.9603059"><ele>404.99999999999994</ele><time>2026-05-02T06:49:29.031Z</time></trkpt><trkpt lat="45.7575533" lon="8.9602369"><ele>405.0</ele><time>2026-05-02T06:49:37.049Z</time></trkpt><trkpt lat="45.7575853" lon="8.9601579"><ele>405.0</ele><time>2026-05-02T06:49:44.099Z</time></trkpt><trkpt lat="45.7576446" lon="8.960102"><ele>405.0</ele><time>2026-05-02T06:49:49.998Z</time></trkpt><trkpt lat="45.7577033" lon="8.9600396"><ele>405.0</ele><time>2026-05-02T06:49:55.032Z</time></trkpt><trkpt lat="45.7577605" lon="8.9599881"><ele>404.99999999999994</ele><time>2026-05-02T06:49:59.997Z</time></trkpt><trkpt lat="45.7578137" lon="8.9599188"><ele>405.0</ele><time>2026-05-02T06:50:07.059Z</time></trkpt><trkpt lat="45.7578638" lon="8.9598304"><ele>405.4285714285714</ele><time>2026-05-02T06:50:11.998Z</time></trkpt><trkpt lat="45.757919" lon="8.9597741"><ele>405.85714285714283</ele><time>2026-05-02T06:50:16.933Z</time></trkpt><trkpt lat="45.7579693" lon="8.9597064"><ele>406.2857142857143</ele><time>2026-05-02T06:50:22.998Z</time></trkpt><trkpt lat="45.758034" lon="8.9596667"><ele>406.71428571428567</ele><time>2026-05-02T06:50:28.022Z</time></trkpt><trkpt lat="45.7580959" lon="8.9596198"><ele>407.14285714285717</ele><time>2026-05-02T06:50:32.971Z</time></trkpt><trkpt lat="45.7581392" lon="8.95955"><ele>407.57142857142856</ele><time>2026-05-02T06:50:39.013Z</time></trkpt><trkpt lat="45.7581938" lon="8.9594731"><ele>408.0</ele><time>2026-05-02T06:50:44.999Z</time></trkpt><trkpt lat="45.7582449" lon="8.9594185"><ele>408.0</ele><time>2026-05-02T06:50:50.011Z</time></trkpt><trkpt lat="45.758284" lon="8.9593461"><ele>408.0</ele><time>2026-05-02T06:50:54.929Z</time></trkpt><trkpt lat="45.7583212" lon="8.9592598"><ele>408.0</ele><time>2026-05-02T06:50:58.999Z</time></trkpt><trkpt lat="45.758362" lon="8.9591672"><ele>408.0</ele><time>2026-05-02T06:51:03.998Z</time></trkpt><trkpt lat="45.758414" lon="8.9590898"><ele>408.0</ele><time>2026-05-02T06:51:09.024Z</time></trkpt><trkpt lat="45.7584618" lon="8.9590204"><ele>408.0</ele><time>2026-05-02T06:51:13.998Z</time></trkpt><trkpt lat="45.758509" lon="8.9589466"><ele>408.0</ele><time>2026-05-02T06:51:20.055Z</time></trkpt><trkpt lat="45.7585657" lon="8.958872"><ele>407.6666666666667</ele><time>2026-05-02T06:51:25.54Z</time></trkpt><trkpt lat="45.7586251" lon="8.9588206"><ele>407.33333333333337</ele><time>2026-05-02T06:51:29.897Z</time></trkpt><trkpt lat="45.7587368" lon="8.9587259"><ele>407.0</ele><time>2026-05-02T06:51:37.184Z</time></trkpt><trkpt lat="45.7587998" lon="8.9586714"><ele>406.6666666666667</ele><time>2026-05-02T06:51:41.618Z</time></trkpt><trkpt lat="45.7588141" lon="8.9585826"><ele>406.33333333333337</ele><time>2026-05-02T06:51:48.004Z</time></trkpt><trkpt lat="45.7588613" lon="8.958514"><ele>406.0</ele><time>2026-05-02T06:51:55.999Z</time></trkpt><trkpt lat="45.7589134" lon="8.9584623"><ele>406.0</ele><time>2026-05-02T06:52:02.056Z</time></trkpt><trkpt lat="45.7590653" lon="8.9583902"><ele>406.0</ele><time>2026-05-02T06:53:10Z</time></trkpt><trkpt lat="45.7591078" lon="8.9583147"><ele>406.0</ele><time>2026-05-02T06:53:17Z</time></trkpt><trkpt lat="45.7591644" lon="8.9582514"><ele>406.0</ele><time>2026-05-02T06:53:23.035Z</time></trkpt><trkpt lat="45.7592251" lon="8.9581716"><ele>406.0</ele><time>2026-05-02T06:53:38.085Z</time></trkpt><trkpt lat="45.7592319" lon="8.9580736"><ele>406.1666666666667</ele><time>2026-05-02T06:53:47.253Z</time></trkpt><trkpt lat="45.7592064" lon="8.9579781"><ele>406.33333333333337</ele><time>2026-05-02T06:53:53.639Z</time></trkpt><trkpt lat="45.7591928" lon="8.9578897"><ele>406.5</ele><time>2026-05-02T06:53:58.972Z</time></trkpt><trkpt lat="45.7591753" lon="8.9578022"><ele>406.66666666666663</ele><time>2026-05-02T06:54:03.935Z</time></trkpt><trkpt lat="45.7591446" lon="8.9577127"><ele>406.8333333333333</ele><time>2026-05-02T06:54:09.011Z</time></trkpt><trkpt lat="45.7591467" lon="8.9575533"><ele>407.0</ele><time>2026-05-02T06:54:19.997Z</time></trkpt><trkpt lat="45.7591058" lon="8.9574007"><ele>407.00000000000006</ele><time>2026-05-02T06:54:41.035Z</time></trkpt><trkpt lat="45.7590711" lon="8.9574871"><ele>407.0</ele><time>2026-05-02T06:55:12.998Z</time></trkpt><trkpt lat="45.7590207" lon="8.9575475"><ele>407.0</ele><time>2026-05-02T06:55:18.031Z</time></trkpt><trkpt lat="45.7589609" lon="8.9575815"><ele>407.0</ele><time>2026-05-02T06:55:22.04Z</time></trkpt><trkpt lat="45.7588976" lon="8.9576068"><ele>407.0</ele><time>2026-05-02T06:55:27.006Z</time></trkpt><trkpt lat="45.758826" lon="8.9576351"><ele>407.00000000000006</ele><time>2026-05-02T06:55:32.005Z</time></trkpt><trkpt lat="45.75876" lon="8.9576598"><ele>407.0</ele><time>2026-05-02T06:55:38.076Z</time></trkpt><trkpt lat="45.7586916" lon="8.9576832"><ele>406.99999999999994</ele><time>2026-05-02T06:55:48.999Z</time></trkpt><trkpt lat="45.7586777" lon="8.9577785"><ele>407.0</ele><time>2026-05-02T06:55:58.915Z</time></trkpt><trkpt lat="45.758624" lon="8.9578293"><ele>407.0</ele><time>2026-05-02T06:56:03.998Z</time></trkpt><trkpt lat="45.7586362" lon="8.9579206"><ele>407.0</ele><time>2026-05-02T06:56:15.072Z</time></trkpt><trkpt lat="45.7586783" lon="8.9580264"><ele>406.99999999999994</ele><time>2026-05-02T06:56:48.059Z</time></trkpt><trkpt lat="45.7587349" lon="8.9581708"><ele>407.0</ele><time>2026-05-02T06:56:54.078Z</time></trkpt><trkpt lat="45.7587642" lon="8.9582593"><ele>407.00000000000006</ele><time>2026-05-02T06:56:59.055Z</time></trkpt><trkpt lat="45.7587644" lon="8.9583557"><ele>407.0</ele><time>2026-05-02T06:57:09.019Z</time></trkpt><trkpt lat="45.7587682" lon="8.9584557"><ele>407.0</ele><time>2026-05-02T06:57:16.006Z</time></trkpt><trkpt lat="45.7588289" lon="8.958501"><ele>407.0</ele><time>2026-05-02T06:57:22.997Z</time></trkpt><trkpt lat="45.7588215" lon="8.9585968"><ele>407.0</ele><time>2026-05-02T06:57:33.053Z</time></trkpt><trkpt lat="45.7588328" lon="8.9587413"><ele>407.00000000000006</ele><time>2026-05-02T06:57:47.046Z</time></trkpt><trkpt lat="45.7587935" lon="8.9588313"><ele>407.0</ele><time>2026-05-02T06:57:51.977Z</time></trkpt><trkpt lat="45.7587445" lon="8.9589043"><ele>406.8333333333333</ele><time>2026-05-02T06:57:57.011Z</time></trkpt><trkpt lat="45.7586883" lon="8.9589737"><ele>406.66666666666663</ele><time>2026-05-02T06:58:02.037Z</time></trkpt><trkpt lat="45.7586431" lon="8.9590391"><ele>406.5</ele><time>2026-05-02T06:58:05.93Z</time></trkpt><trkpt lat="45.7586017" lon="8.959111"><ele>406.33333333333337</ele><time>2026-05-02T06:58:10.353Z</time></trkpt><trkpt lat="45.7585533" lon="8.959188"><ele>406.1666666666667</ele><time>2026-05-02T06:58:15.653Z</time></trkpt><trkpt lat="45.7584615" lon="8.9592975"><ele>406.0</ele><time>2026-05-02T06:58:24.042Z</time></trkpt><trkpt lat="45.758401" lon="8.9593807"><ele>406.2857142857143</ele><time>2026-05-02T06:58:28.051Z</time></trkpt><trkpt lat="45.7583525" lon="8.9594433"><ele>406.57142857142856</ele><time>2026-05-02T06:58:33.121Z</time></trkpt><trkpt lat="45.7583246" lon="8.9595266"><ele>406.8571428571429</ele><time>2026-05-02T06:58:39.578Z</time></trkpt><trkpt lat="45.7582981" lon="8.9596123"><ele>407.1428571428571</ele><time>2026-05-02T06:58:49.127Z</time></trkpt><trkpt lat="45.7582514" lon="8.9597051"><ele>407.42857142857144</ele><time>2026-05-02T06:58:58.06Z</time></trkpt><trkpt lat="45.7581899" lon="8.9597589"><ele>407.7142857142857</ele><time>2026-05-02T06:59:02.069Z</time></trkpt><trkpt lat="45.7581325" lon="8.9598356"><ele>408.0</ele><time>2026-05-02T06:59:07.226Z</time></trkpt><trkpt lat="45.7580791" lon="8.9598964"><ele>408.0</ele><time>2026-05-02T06:59:11.525Z</time></trkpt><trkpt lat="45.7580158" lon="8.9599675"><ele>408.0</ele><time>2026-05-02T06:59:17.999Z</time></trkpt><trkpt lat="45.7579624" lon="8.9600277"><ele>408.0</ele><time>2026-05-02T06:59:21.998Z</time></trkpt><trkpt lat="45.757907" lon="8.9600799"><ele>408.0</ele><time>2026-05-02T06:59:27.999Z</time></trkpt><trkpt lat="45.7578669" lon="8.960159"><ele>408.0</ele><time>2026-05-02T06:59:34.025Z</time></trkpt><trkpt lat="45.7578236" lon="8.9602286"><ele>408.0</ele><time>2026-05-02T06:59:43.998Z</time></trkpt><trkpt lat="45.7577605" lon="8.9602676"><ele>408.0</ele><time>2026-05-02T06:59:51.091Z</time></trkpt><trkpt lat="45.7576968" lon="8.960307"><ele>407.5</ele><time>2026-05-02T06:59:59.115Z</time></trkpt><trkpt lat="45.7576312" lon="8.9603462"><ele>407.0</ele><time>2026-05-02T07:00:08.999Z</time></trkpt><trkpt lat="45.7575603" lon="8.9603807"><ele>406.5</ele><time>2026-05-02T07:00:15.998Z</time></trkpt><trkpt lat="45.7575058" lon="8.9604523"><ele>406.0</ele><time>2026-05-02T07:00:19.997Z</time></trkpt><trkpt lat="45.7574717" lon="8.9605331"><ele>405.5</ele><time>2026-05-02T07:00:26.025Z</time></trkpt><trkpt lat="45.7574307" lon="8.9606085"><ele>405.0</ele><time>2026-05-02T07:00:38.052Z</time></trkpt><trkpt lat="45.7573368" lon="8.9607575"><ele>404.99999999999994</ele><time>2026-05-02T07:00:48.919Z</time></trkpt><trkpt lat="45.7572957" lon="8.9608325"><ele>405.0</ele><time>2026-05-02T07:00:52.095Z</time></trkpt><trkpt lat="45.7572467" lon="8.9609014"><ele>405.0</ele><time>2026-05-02T07:00:56.034Z</time></trkpt><trkpt lat="45.7571849" lon="8.9609344"><ele>405.0</ele><time>2026-05-02T07:01:00.043Z</time></trkpt><trkpt lat="45.7571194" lon="8.9609708"><ele>405.0</ele><time>2026-05-02T07:01:05.999Z</time></trkpt><trkpt lat="45.7570658" lon="8.9610269"><ele>404.99999999999994</ele><time>2026-05-02T07:01:12.022Z</time></trkpt><trkpt lat="45.7570165" lon="8.9610857"><ele>405.0</ele><time>2026-05-02T07:01:16.998Z</time></trkpt><trkpt lat="45.756949" lon="8.9611213"><ele>404.71428571428567</ele><time>2026-05-02T07:01:22.034Z</time></trkpt><trkpt lat="45.7568839" lon="8.9611773"><ele>404.42857142857144</ele><time>2026-05-02T07:01:27.998Z</time></trkpt><trkpt lat="45.7568467" lon="8.9612613"><ele>404.1428571428571</ele><time>2026-05-02T07:01:33.997Z</time></trkpt><trkpt lat="45.7567937" lon="8.9613229"><ele>403.85714285714283</ele><time>2026-05-02T07:01:41.047Z</time></trkpt><trkpt lat="45.7567254" lon="8.9613553"><ele>403.57142857142856</ele><time>2026-05-02T07:01:45.014Z</time></trkpt><trkpt lat="45.7566572" lon="8.9613525"><ele>403.2857142857143</ele><time>2026-05-02T07:01:51.012Z</time></trkpt><trkpt lat="45.7565865" lon="8.9614243"><ele>403.0</ele><time>2026-05-02T07:01:54.001Z</time></trkpt><trkpt lat="45.7565407" lon="8.9615098"><ele>402.8571428571429</ele><time>2026-05-02T07:02:04.006Z</time></trkpt><trkpt lat="45.7564979" lon="8.9615874"><ele>402.71428571428567</ele><time>2026-05-02T07:02:08.999Z</time></trkpt><trkpt lat="45.7564427" lon="8.9616576"><ele>402.57142857142856</ele><time>2026-05-02T07:02:15.978Z</time></trkpt><trkpt lat="45.7563897" lon="8.9617222"><ele>402.42857142857144</ele><time>2026-05-02T07:02:19.999Z</time></trkpt><trkpt lat="45.7563371" lon="8.961789"><ele>402.28571428571433</ele><time>2026-05-02T07:02:24.038Z</time></trkpt><trkpt lat="45.7562806" lon="8.9618344"><ele>402.1428571428571</ele><time>2026-05-02T07:02:28.979Z</time></trkpt><trkpt lat="45.7562233" lon="8.9618844"><ele>402.0</ele><time>2026-05-02T07:02:36.009Z</time></trkpt><trkpt lat="45.7561717" lon="8.9619488"><ele>401.4285714285714</ele><time>2026-05-02T07:02:41.065Z</time></trkpt><trkpt lat="45.7561173" lon="8.9620144"><ele>400.8571428571429</ele><time>2026-05-02T07:02:45.997Z</time></trkpt><trkpt lat="45.7560753" lon="8.9620823"><ele>400.2857142857143</ele><time>2026-05-02T07:02:52.06Z</time></trkpt><trkpt lat="45.7560347" lon="8.9621552"><ele>399.71428571428567</ele><time>2026-05-02T07:02:57.03Z</time></trkpt><trkpt lat="45.7559785" lon="8.9622093"><ele>399.1428571428571</ele><time>2026-05-02T07:03:02.999Z</time></trkpt><trkpt lat="45.7559244" lon="8.9622691"><ele>398.57142857142856</ele><time>2026-05-02T07:03:06.998Z</time></trkpt><trkpt lat="45.755859" lon="8.9622988"><ele>398.0</ele><time>2026-05-02T07:03:13.021Z</time></trkpt><trkpt lat="45.7557969" lon="8.9622745"><ele>397.99999999999994</ele><time>2026-05-02T07:03:18.991Z</time></trkpt><trkpt lat="45.7557334" lon="8.962243"><ele>398.0</ele><time>2026-05-02T07:03:23.418Z</time></trkpt><trkpt lat="45.7556576" lon="8.9622434"><ele>398.0</ele><time>2026-05-02T07:03:28.743Z</time></trkpt><trkpt lat="45.7555879" lon="8.9622422"><ele>398.0</ele><time>2026-05-02T07:03:33.087Z</time></trkpt><trkpt lat="45.7555176" lon="8.9622255"><ele>398.0</ele><time>2026-05-02T07:03:37.973Z</time></trkpt><trkpt lat="45.7554544" lon="8.9621918"><ele>397.99999999999994</ele><time>2026-05-02T07:03:43.03Z</time></trkpt><trkpt lat="45.7553843" lon="8.9621489"><ele>398.0</ele><time>2026-05-02T07:03:47.998Z</time></trkpt><trkpt lat="45.7553183" lon="8.9620976"><ele>397.99999999999994</ele><time>2026-05-02T07:03:53.069Z</time></trkpt><trkpt lat="45.7552465" lon="8.9620592"><ele>398.0</ele><time>2026-05-02T07:03:58.035Z</time></trkpt><trkpt lat="45.7551938" lon="8.9619888"><ele>398.0</ele><time>2026-05-02T07:04:03.998Z</time></trkpt><trkpt lat="45.7551407" lon="8.9619061"><ele>398.0</ele><time>2026-05-02T07:04:10.062Z</time></trkpt><trkpt lat="45.7550906" lon="8.9618384"><ele>397.99999999999994</ele><time>2026-05-02T07:04:17.049Z</time></trkpt><trkpt lat="45.7549987" lon="8.9617999"><ele>398.0</ele><time>2026-05-02T07:04:30.973Z</time></trkpt><trkpt lat="45.7549303" lon="8.9617875"><ele>397.85714285714283</ele><time>2026-05-02T07:04:34.215Z</time></trkpt><trkpt lat="45.75486" lon="8.9617896"><ele>397.7142857142857</ele><time>2026-05-02T07:04:38.396Z</time></trkpt><trkpt lat="45.7547934" lon="8.9617901"><ele>397.57142857142856</ele><time>2026-05-02T07:04:43.788Z</time></trkpt><trkpt lat="45.7547268" lon="8.9618066"><ele>397.42857142857144</ele><time>2026-05-02T07:04:49.095Z</time></trkpt><trkpt lat="45.7546708" lon="8.9618739"><ele>397.2857142857143</ele><time>2026-05-02T07:04:55.083Z</time></trkpt><trkpt lat="45.7546095" lon="8.9619345"><ele>397.1428571428571</ele><time>2026-05-02T07:05:01.058Z</time></trkpt><trkpt lat="45.7545497" lon="8.9619848"><ele>397.0</ele><time>2026-05-02T07:05:05.999Z</time></trkpt><trkpt lat="45.7544919" lon="8.9620312"><ele>397.0</ele><time>2026-05-02T07:05:10.999Z</time></trkpt><trkpt lat="45.7544252" lon="8.962091"><ele>397.0</ele><time>2026-05-02T07:05:16Z</time></trkpt><trkpt lat="45.7543724" lon="8.9621441"><ele>397.0</ele><time>2026-05-02T07:05:20.046Z</time></trkpt><trkpt lat="45.754316" lon="8.9621949"><ele>397.0</ele><time>2026-05-02T07:05:23.997Z</time></trkpt><trkpt lat="45.7542501" lon="8.9622629"><ele>397.0</ele><time>2026-05-02T07:05:30.01Z</time></trkpt><trkpt lat="45.7541881" lon="8.9623076"><ele>397.0</ele><time>2026-05-02T07:05:34.033Z</time></trkpt><trkpt lat="45.7541327" lon="8.9623571"><ele>397.0</ele><time>2026-05-02T07:05:38.999Z</time></trkpt><trkpt lat="45.7540824" lon="8.9624165"><ele>396.7142857142857</ele><time>2026-05-02T07:05:44.133Z</time></trkpt><trkpt lat="45.7540346" lon="8.9624774"><ele>396.42857142857144</ele><time>2026-05-02T07:05:48.434Z</time></trkpt><trkpt lat="45.7539824" lon="8.9625499"><ele>396.1428571428571</ele><time>2026-05-02T07:05:53.814Z</time></trkpt><trkpt lat="45.7539314" lon="8.9626093"><ele>395.8571428571429</ele><time>2026-05-02T07:05:59.113Z</time></trkpt><trkpt lat="45.753881" lon="8.9626758"><ele>395.5714285714286</ele><time>2026-05-02T07:06:05.058Z</time></trkpt><trkpt lat="45.7538232" lon="8.9627554"><ele>395.2857142857143</ele><time>2026-05-02T07:06:10Z</time></trkpt><trkpt lat="45.753772" lon="8.9628256"><ele>395.0</ele><time>2026-05-02T07:06:15.024Z</time></trkpt><trkpt lat="45.7537172" lon="8.9628873"><ele>395.0</ele><time>2026-05-02T07:06:24.072Z</time></trkpt><trkpt lat="45.7536686" lon="8.9629457"><ele>395.0</ele><time>2026-05-02T07:06:27.954Z</time></trkpt><trkpt lat="45.7536235" lon="8.963023"><ele>395.0</ele><time>2026-05-02T07:06:32.101Z</time></trkpt><trkpt lat="45.7536048" lon="8.9631175"><ele>395.0</ele><time>2026-05-02T07:06:38.046Z</time></trkpt><trkpt lat="45.7535847" lon="8.9632112"><ele>395.0</ele><time>2026-05-02T07:06:44.978Z</time></trkpt><trkpt lat="45.7535921" lon="8.9633023"><ele>395.0</ele><time>2026-05-02T07:06:52.019Z</time></trkpt><trkpt lat="45.7536045" lon="8.9634006"><ele>395.0</ele><time>2026-05-02T07:06:57.998Z</time></trkpt><trkpt lat="45.7536377" lon="8.9634943"><ele>394.7142857142857</ele><time>2026-05-02T07:07:03.015Z</time></trkpt><trkpt lat="45.7536657" lon="8.9635773"><ele>394.42857142857144</ele><time>2026-05-02T07:07:07.024Z</time></trkpt><trkpt lat="45.7536737" lon="8.9636781"><ele>394.14285714285717</ele><time>2026-05-02T07:07:14.01Z</time></trkpt><trkpt lat="45.7537113" lon="8.9637547"><ele>393.8571428571429</ele><time>2026-05-02T07:07:20.117Z</time></trkpt><trkpt lat="45.7537451" lon="8.9638416"><ele>393.57142857142856</ele><time>2026-05-02T07:07:23.343Z</time></trkpt><trkpt lat="45.753756" lon="8.9639392"><ele>393.28571428571433</ele><time>2026-05-02T07:07:27.379Z</time></trkpt><trkpt lat="45.7537755" lon="8.9640274"><ele>393.0</ele><time>2026-05-02T07:07:32.82Z</time></trkpt><trkpt lat="45.7537888" lon="8.9641305"><ele>392.28571428571433</ele><time>2026-05-02T07:07:40.01Z</time></trkpt><trkpt lat="45.7537911" lon="8.9642295"><ele>391.57142857142856</ele><time>2026-05-02T07:07:45.049Z</time></trkpt><trkpt lat="45.7538046" lon="8.9643484"><ele>390.8571428571429</ele><time>2026-05-02T07:07:51.27Z</time></trkpt><trkpt lat="45.7538025" lon="8.9644548"><ele>390.14285714285717</ele><time>2026-05-02T07:07:56.512Z</time></trkpt><trkpt lat="45.7537666" lon="8.9645345"><ele>389.42857142857144</ele><time>2026-05-02T07:08:00.798Z</time></trkpt><trkpt lat="45.7537125" lon="8.9646028"><ele>388.7142857142857</ele><time>2026-05-02T07:08:08.072Z</time></trkpt><trkpt lat="45.7536752" lon="8.9647002"><ele>388.0</ele><time>2026-05-02T07:08:11.998Z</time></trkpt><trkpt lat="45.7536141" lon="8.9647548"><ele>388.0</ele><time>2026-05-02T07:08:17.008Z</time></trkpt><trkpt lat="45.7535484" lon="8.9647838"><ele>388.0</ele><time>2026-05-02T07:08:23.076Z</time></trkpt><trkpt lat="45.7534911" lon="8.9648419"><ele>388.0</ele><time>2026-05-02T07:08:29.08Z</time></trkpt><trkpt lat="45.7534293" lon="8.9648751"><ele>388.0</ele><time>2026-05-02T07:08:35.52Z</time></trkpt><trkpt lat="45.7533775" lon="8.964945"><ele>388.0</ele><time>2026-05-02T07:08:39.799Z</time></trkpt><trkpt lat="45.7533091" lon="8.9649958"><ele>388.0</ele><time>2026-05-02T07:08:45.067Z</time></trkpt><trkpt lat="45.75325" lon="8.9650515"><ele>388.0</ele><time>2026-05-02T07:08:52.999Z</time></trkpt><trkpt lat="45.7531946" lon="8.9651033"><ele>388.4285714285714</ele><time>2026-05-02T07:08:58.914Z</time></trkpt><trkpt lat="45.7531374" lon="8.9651528"><ele>388.8571428571429</ele><time>2026-05-02T07:09:03.05Z</time></trkpt><trkpt lat="45.7530767" lon="8.9652147"><ele>389.2857142857143</ele><time>2026-05-02T07:09:07.058Z</time></trkpt><trkpt lat="45.7530139" lon="8.9652682"><ele>389.71428571428567</ele><time>2026-05-02T07:09:10.998Z</time></trkpt><trkpt lat="45.7529642" lon="8.9653336"><ele>390.1428571428571</ele><time>2026-05-02T07:09:17.076Z</time></trkpt><trkpt lat="45.7529553" lon="8.9654395"><ele>390.57142857142856</ele><time>2026-05-02T07:09:26.072Z</time></trkpt><trkpt lat="45.7529302" lon="8.9655307"><ele>391.0</ele><time>2026-05-02T07:09:30.025Z</time></trkpt><trkpt lat="45.752889" lon="8.9656205"><ele>390.99999999999994</ele><time>2026-05-02T07:09:35.005Z</time></trkpt><trkpt lat="45.7528627" lon="8.9657062"><ele>391.0</ele><time>2026-05-02T07:09:38.971Z</time></trkpt><trkpt lat="45.752827" lon="8.9657927"><ele>391.0</ele><time>2026-05-02T07:09:44.053Z</time></trkpt><trkpt lat="45.7527815" lon="8.9658711"><ele>391.0</ele><time>2026-05-02T07:09:51.04Z</time></trkpt><trkpt lat="45.7527468" lon="8.9659687"><ele>391.0</ele><time>2026-05-02T07:09:54.968Z</time></trkpt><trkpt lat="45.7526975" lon="8.9660339"><ele>390.99999999999994</ele><time>2026-05-02T07:09:59.28Z</time></trkpt><trkpt lat="45.7526347" lon="8.9660944"><ele>391.0</ele><time>2026-05-02T07:10:05.674Z</time></trkpt><trkpt lat="45.7525842" lon="8.9661625"><ele>391.2857142857143</ele><time>2026-05-02T07:10:11.1Z</time></trkpt><trkpt lat="45.7525426" lon="8.9662333"><ele>391.57142857142856</ele><time>2026-05-02T07:10:16.012Z</time></trkpt><trkpt lat="45.7524779" lon="8.9662848"><ele>391.8571428571429</ele><time>2026-05-02T07:10:21.998Z</time></trkpt><trkpt lat="45.7523947" lon="8.9663082"><ele>392.1428571428571</ele><time>2026-05-02T07:10:29.066Z</time></trkpt><trkpt lat="45.752336" lon="8.966349"><ele>392.42857142857144</ele><time>2026-05-02T07:10:32.044Z</time></trkpt><trkpt lat="45.7522688" lon="8.9663706"><ele>392.7142857142857</ele><time>2026-05-02T07:10:36.998Z</time></trkpt><trkpt lat="45.7522064" lon="8.9663933"><ele>393.0</ele><time>2026-05-02T07:10:45.099Z</time></trkpt><trkpt lat="45.7521384" lon="8.9663896"><ele>393.00000000000006</ele><time>2026-05-02T07:10:55.066Z</time></trkpt><trkpt lat="45.7520749" lon="8.9663838"><ele>393.0</ele><time>2026-05-02T07:11:01.022Z</time></trkpt><trkpt lat="45.7520104" lon="8.9663915"><ele>393.0</ele><time>2026-05-02T07:11:05.948Z</time></trkpt><trkpt lat="45.7519496" lon="8.9664251"><ele>393.0</ele><time>2026-05-02T07:11:11.101Z</time></trkpt><trkpt lat="45.7518906" lon="8.9664632"><ele>393.0</ele><time>2026-05-02T07:11:15.018Z</time></trkpt><trkpt lat="45.7518313" lon="8.9665238"><ele>393.00000000000006</ele><time>2026-05-02T07:11:19.91Z</time></trkpt><trkpt lat="45.7517736" lon="8.9665619"><ele>393.0</ele><time>2026-05-02T07:11:25.999Z</time></trkpt><trkpt lat="45.7517041" lon="8.9666009"><ele>392.5714285714286</ele><time>2026-05-02T07:11:31.347Z</time></trkpt><trkpt lat="45.7516578" lon="8.9666749"><ele>392.14285714285717</ele><time>2026-05-02T07:11:37.635Z</time></trkpt><trkpt lat="45.7516324" lon="8.9667646"><ele>391.7142857142857</ele><time>2026-05-02T07:11:46.001Z</time></trkpt><trkpt lat="45.7515671" lon="8.9668511"><ele>391.28571428571433</ele><time>2026-05-02T07:11:52.47Z</time></trkpt><trkpt lat="45.7515026" lon="8.9669025"><ele>390.85714285714283</ele><time>2026-05-02T07:11:56.575Z</time></trkpt><trkpt lat="45.7514837" lon="8.966996"><ele>390.42857142857144</ele><time>2026-05-02T07:12:02.134Z</time></trkpt><trkpt lat="45.75142" lon="8.9670423"><ele>390.0</ele><time>2026-05-02T07:12:07.042Z</time></trkpt><trkpt lat="45.7513628" lon="8.9670845"><ele>389.7142857142857</ele><time>2026-05-02T07:12:11.004Z</time></trkpt><trkpt lat="45.7513212" lon="8.9671688"><ele>389.42857142857144</ele><time>2026-05-02T07:12:19.021Z</time></trkpt><trkpt lat="45.7512918" lon="8.9672667"><ele>389.1428571428571</ele><time>2026-05-02T07:12:26.008Z</time></trkpt><trkpt lat="45.7512487" lon="8.967341"><ele>388.8571428571429</ele><time>2026-05-02T07:12:35.998Z</time></trkpt><trkpt lat="45.7511977" lon="8.9674026"><ele>388.5714285714286</ele><time>2026-05-02T07:12:39.998Z</time></trkpt><trkpt lat="45.7511397" lon="8.9674537"><ele>388.2857142857143</ele><time>2026-05-02T07:12:43.074Z</time></trkpt><trkpt lat="45.7510769" lon="8.9675015"><ele>388.0</ele><time>2026-05-02T07:12:50.093Z</time></trkpt><trkpt lat="45.7510122" lon="8.9675307"><ele>386.0</ele><time>2026-05-02T07:12:56.016Z</time></trkpt><trkpt lat="45.7509381" lon="8.9675283"><ele>384.0</ele><time>2026-05-02T07:13:01.998Z</time></trkpt><trkpt lat="45.7508731" lon="8.9675486"><ele>382.0</ele><time>2026-05-02T07:13:09.073Z</time></trkpt><trkpt lat="45.7508063" lon="8.9676045"><ele>380.0</ele><time>2026-05-02T07:13:14.035Z</time></trkpt><trkpt lat="45.7507404" lon="8.9676003"><ele>378.0</ele><time>2026-05-02T07:13:19.038Z</time></trkpt><trkpt lat="45.7506665" lon="8.9676259"><ele>376.0</ele><time>2026-05-02T07:13:23.999Z</time></trkpt><trkpt lat="45.7505994" lon="8.9676307"><ele>374.0</ele><time>2026-05-02T07:13:30.998Z</time></trkpt><trkpt lat="45.7505455" lon="8.9676863"><ele>374.0</ele><time>2026-05-02T07:13:39.014Z</time></trkpt><trkpt lat="45.7504833" lon="8.9677254"><ele>374.0</ele><time>2026-05-02T07:13:46.063Z</time></trkpt><trkpt lat="45.7504185" lon="8.9676968"><ele>374.0</ele><time>2026-05-02T07:13:57.015Z</time></trkpt><trkpt lat="45.7503558" lon="8.9677236"><ele>374.0</ele><time>2026-05-02T07:14:05.998Z</time></trkpt><trkpt lat="45.7502338" lon="8.96774"><ele>374.0</ele><time>2026-05-02T07:14:24.199Z</time></trkpt><trkpt lat="45.7501793" lon="8.9677976"><ele>374.0</ele><time>2026-05-02T07:14:31.082Z</time></trkpt><trkpt lat="45.750133" lon="8.967863"><ele>372.7142857142857</ele><time>2026-05-02T07:14:38.999Z</time></trkpt><trkpt lat="45.7500774" lon="8.9679266"><ele>371.42857142857144</ele><time>2026-05-02T07:14:49.975Z</time></trkpt><trkpt lat="45.7500223" lon="8.9679711"><ele>370.14285714285717</ele><time>2026-05-02T07:15:00.476Z</time></trkpt><trkpt lat="45.7499526" lon="8.9679816"><ele>368.8571428571429</ele><time>2026-05-02T07:15:11.999Z</time></trkpt><trkpt lat="45.7498867" lon="8.9679833"><ele>367.57142857142856</ele><time>2026-05-02T07:15:18.488Z</time></trkpt><trkpt lat="45.7498129" lon="8.9679851"><ele>366.28571428571433</ele><time>2026-05-02T07:15:23.995Z</time></trkpt><trkpt lat="45.7497495" lon="8.9680188"><ele>365.0</ele><time>2026-05-02T07:15:32.015Z</time></trkpt><trkpt lat="45.74969" lon="8.9680793"><ele>365.00000000000006</ele><time>2026-05-02T07:15:39.002Z</time></trkpt><trkpt lat="45.7496235" lon="8.9680678"><ele>365.0</ele><time>2026-05-02T07:15:47.189Z</time></trkpt><trkpt lat="45.7495741" lon="8.9680053"><ele>365.0</ele><time>2026-05-02T07:16:05.001Z</time></trkpt><trkpt lat="45.7495313" lon="8.9680728"><ele>365.0</ele><time>2026-05-02T07:16:14.999Z</time></trkpt><trkpt lat="45.7495067" lon="8.9681588"><ele>365.0</ele><time>2026-05-02T07:16:20.239Z</time></trkpt><trkpt lat="45.7494777" lon="8.9682492"><ele>365.00000000000006</ele><time>2026-05-02T07:16:27.92Z</time></trkpt><trkpt lat="45.7494612" lon="8.968341"><ele>365.0</ele><time>2026-05-02T07:16:33.999Z</time></trkpt><trkpt lat="45.7494315" lon="8.9684274"><ele>366.28571428571433</ele><time>2026-05-02T07:16:40.115Z</time></trkpt><trkpt lat="45.7493724" lon="8.9684745"><ele>367.57142857142856</ele><time>2026-05-02T07:16:45.63Z</time></trkpt><trkpt lat="45.7493106" lon="8.9685236"><ele>368.8571428571429</ele><time>2026-05-02T07:16:51.014Z</time></trkpt><trkpt lat="45.7492569" lon="8.9685712"><ele>370.14285714285717</ele><time>2026-05-02T07:16:55.012Z</time></trkpt><trkpt lat="45.7492073" lon="8.9686311"><ele>371.42857142857144</ele><time>2026-05-02T07:17:02.04Z</time></trkpt><trkpt lat="45.7491654" lon="8.9686998"><ele>372.7142857142857</ele><time>2026-05-02T07:17:13.035Z</time></trkpt><trkpt lat="45.7491203" lon="8.9687757"><ele>374.0</ele><time>2026-05-02T07:17:21.999Z</time></trkpt><trkpt lat="45.7490727" lon="8.9688377"><ele>374.0</ele><time>2026-05-02T07:17:40.967Z</time></trkpt><trkpt lat="45.7490006" lon="8.9688291"><ele>374.0</ele><time>2026-05-02T07:17:45.112Z</time></trkpt><trkpt lat="45.7489358" lon="8.9688391"><ele>374.0</ele><time>2026-05-02T07:17:52.729Z</time></trkpt><trkpt lat="45.7488897" lon="8.9689028"><ele>374.0</ele><time>2026-05-02T07:17:58.998Z</time></trkpt><trkpt lat="45.7488406" lon="8.9689733"><ele>374.0</ele><time>2026-05-02T07:18:06.09Z</time></trkpt><trkpt lat="45.7487784" lon="8.9690327"><ele>374.0</ele><time>2026-05-02T07:18:10.999Z</time></trkpt><trkpt lat="45.7487153" lon="8.9690572"><ele>374.0</ele><time>2026-05-02T07:18:16.029Z</time></trkpt><trkpt lat="45.7486523" lon="8.9690883"><ele>374.0</ele><time>2026-05-02T07:18:20.038Z</time></trkpt><trkpt lat="45.7485827" lon="8.9691219"><ele>374.0</ele><time>2026-05-02T07:18:24.998Z</time></trkpt><trkpt lat="45.7485151" lon="8.9691264"><ele>374.0</ele><time>2026-05-02T07:18:30.003Z</time></trkpt><trkpt lat="45.748408" lon="8.9691545"><ele>374.0</ele><time>2026-05-02T07:18:36.999Z</time></trkpt><trkpt lat="45.7483432" lon="8.969119"><ele>374.0</ele><time>2026-05-02T07:18:46.998Z</time></trkpt><trkpt lat="45.7483301" lon="8.9692166"><ele>374.0</ele><time>2026-05-02T07:19:30.016Z</time></trkpt><trkpt lat="45.7482437" lon="8.9692792"><ele>375.85714285714283</ele><time>2026-05-02T07:19:39.054Z</time></trkpt><trkpt lat="45.7481755" lon="8.9692916"><ele>377.7142857142857</ele><time>2026-05-02T07:19:42.26Z</time></trkpt><trkpt lat="45.74811" lon="8.9692858"><ele>379.57142857142856</ele><time>2026-05-02T07:19:48Z</time></trkpt><trkpt lat="45.7480379" lon="8.9693342"><ele>381.42857142857144</ele><time>2026-05-02T07:19:54.071Z</time></trkpt><trkpt lat="45.747978" lon="8.9693741"><ele>383.28571428571433</ele><time>2026-05-02T07:20:00.027Z</time></trkpt><trkpt lat="45.747908" lon="8.969341"><ele>385.14285714285717</ele><time>2026-05-02T07:20:05.953Z</time></trkpt><trkpt lat="45.7478476" lon="8.9693015"><ele>387.0</ele><time>2026-05-02T07:20:10.099Z</time></trkpt><trkpt lat="45.7477787" lon="8.9693209"><ele>387.0</ele><time>2026-05-02T07:20:19.256Z</time></trkpt><trkpt lat="45.7477148" lon="8.9693526"><ele>387.0</ele><time>2026-05-02T07:20:23.375Z</time></trkpt><trkpt lat="45.7476583" lon="8.9694122"><ele>387.0</ele><time>2026-05-02T07:20:29.675Z</time></trkpt><trkpt lat="45.7475973" lon="8.9694568"><ele>387.0</ele><time>2026-05-02T07:20:34Z</time></trkpt><trkpt lat="45.7475255" lon="8.969484"><ele>387.0</ele><time>2026-05-02T07:20:38.998Z</time></trkpt><trkpt lat="45.7474647" lon="8.9695196"><ele>387.0</ele><time>2026-05-02T07:20:42.061Z</time></trkpt><trkpt lat="45.7474018" lon="8.9695649"><ele>387.0</ele><time>2026-05-02T07:20:46.074Z</time></trkpt><trkpt lat="45.7473412" lon="8.9695953"><ele>385.14285714285717</ele><time>2026-05-02T07:20:49.998Z</time></trkpt><trkpt lat="45.7472852" lon="8.9696762"><ele>383.28571428571433</ele><time>2026-05-02T07:20:55.052Z</time></trkpt><trkpt lat="45.7472431" lon="8.9697504"><ele>381.42857142857144</ele><time>2026-05-02T07:20:59.012Z</time></trkpt><trkpt lat="45.7472122" lon="8.9698296"><ele>379.57142857142856</ele><time>2026-05-02T07:21:02.956Z</time></trkpt><trkpt lat="45.7471529" lon="8.969872"><ele>377.7142857142857</ele><time>2026-05-02T07:21:10.007Z</time></trkpt><trkpt lat="45.7471037" lon="8.9699396"><ele>375.85714285714283</ele><time>2026-05-02T07:21:16.074Z</time></trkpt><trkpt lat="45.7470428" lon="8.9699748"><ele>374.0</ele><time>2026-05-02T07:21:21.002Z</time></trkpt><trkpt lat="45.7469825" lon="8.9700076"><ele>374.0</ele><time>2026-05-02T07:21:29.956Z</time></trkpt><trkpt lat="45.7468825" lon="8.9700191"><ele>374.0</ele><time>2026-05-02T07:22:07.045Z</time></trkpt><trkpt lat="45.7468197" lon="8.9699889"><ele>374.0</ele><time>2026-05-02T07:22:12.016Z</time></trkpt><trkpt lat="45.7467463" lon="8.969991"><ele>374.0</ele><time>2026-05-02T07:22:18.04Z</time></trkpt><trkpt lat="45.7466718" lon="8.9700223"><ele>374.0</ele><time>2026-05-02T07:22:23Z</time></trkpt><trkpt lat="45.746604" lon="8.9700339"><ele>374.0</ele><time>2026-05-02T07:22:28.004Z</time></trkpt><trkpt lat="45.7465401" lon="8.9700519"><ele>372.7142857142857</ele><time>2026-05-02T07:22:33.12Z</time></trkpt><trkpt lat="45.7464725" lon="8.9700638"><ele>371.42857142857144</ele><time>2026-05-02T07:22:37.82Z</time></trkpt><trkpt lat="45.7464067" lon="8.9700885"><ele>370.14285714285717</ele><time>2026-05-02T07:22:41.956Z</time></trkpt><trkpt lat="45.7463419" lon="8.9701106"><ele>368.8571428571429</ele><time>2026-05-02T07:22:45.997Z</time></trkpt><trkpt lat="45.7462725" lon="8.970139"><ele>367.57142857142856</ele><time>2026-05-02T07:22:49.999Z</time></trkpt><trkpt lat="45.7462086" lon="8.970173"><ele>366.28571428571433</ele><time>2026-05-02T07:22:54.019Z</time></trkpt><trkpt lat="45.7461503" lon="8.9702124"><ele>365.0</ele><time>2026-05-02T07:22:58.994Z</time></trkpt><trkpt lat="45.7460838" lon="8.9702527"><ele>364.8571428571429</ele><time>2026-05-02T07:23:29.051Z</time></trkpt><trkpt lat="45.7460231" lon="8.9702788"><ele>364.7142857142857</ele><time>2026-05-02T07:23:33.978Z</time></trkpt><trkpt lat="45.7459588" lon="8.9703201"><ele>364.57142857142856</ele><time>2026-05-02T07:23:40.095Z</time></trkpt><trkpt lat="45.7458863" lon="8.9703608"><ele>364.42857142857144</ele><time>2026-05-02T07:23:45.085Z</time></trkpt><trkpt lat="45.7458216" lon="8.9704043"><ele>364.2857142857143</ele><time>2026-05-02T07:23:48.998Z</time></trkpt><trkpt lat="45.7457589" lon="8.9704409"><ele>364.14285714285717</ele><time>2026-05-02T07:23:54.014Z</time></trkpt><trkpt lat="45.745698" lon="8.9704813"><ele>364.0</ele><time>2026-05-02T07:24:02.036Z</time></trkpt><trkpt lat="45.7456376" lon="8.9705098"><ele>364.0</ele><time>2026-05-02T07:24:06.045Z</time></trkpt><trkpt lat="45.7455637" lon="8.9705292"><ele>364.0</ele><time>2026-05-02T07:24:11.084Z</time></trkpt><trkpt lat="45.7454931" lon="8.970556"><ele>364.0</ele><time>2026-05-02T07:24:18.998Z</time></trkpt><trkpt lat="45.7454205" lon="8.9706162"><ele>364.0</ele><time>2026-05-02T07:24:58.038Z</time></trkpt><trkpt lat="45.7453572" lon="8.9706449"><ele>364.0</ele><time>2026-05-02T07:25:02.051Z</time></trkpt><trkpt lat="45.7452896" lon="8.9706394"><ele>364.0</ele><time>2026-05-02T07:25:09.35Z</time></trkpt><trkpt lat="45.7452262" lon="8.9706349"><ele>364.0</ele><time>2026-05-02T07:25:18.069Z</time></trkpt><trkpt lat="45.745165" lon="8.970676"><ele>363.42857142857144</ele><time>2026-05-02T07:25:25.999Z</time></trkpt><trkpt lat="45.7450588" lon="8.9706975"><ele>362.8571428571429</ele><time>2026-05-02T07:25:50.536Z</time></trkpt><trkpt lat="45.7450014" lon="8.9706437"><ele>362.2857142857143</ele><time>2026-05-02T07:25:53.702Z</time></trkpt><trkpt lat="45.7449518" lon="8.9705839"><ele>361.7142857142857</ele><time>2026-05-02T07:25:56.899Z</time></trkpt><trkpt lat="45.7448986" lon="8.9705055"><ele>361.14285714285717</ele><time>2026-05-02T07:26:01.053Z</time></trkpt><trkpt lat="45.7448529" lon="8.970437"><ele>360.57142857142856</ele><time>2026-05-02T07:26:05.044Z</time></trkpt><trkpt lat="45.744804" lon="8.9703731"><ele>360.0</ele><time>2026-05-02T07:26:09.053Z</time></trkpt><trkpt lat="45.7447431" lon="8.9703297"><ele>360.0</ele><time>2026-05-02T07:26:13.073Z</time></trkpt><trkpt lat="45.744675" lon="8.9702986"><ele>360.0</ele><time>2026-05-02T07:26:17.997Z</time></trkpt><trkpt lat="45.7446031" lon="8.9702792"><ele>360.0</ele><time>2026-05-02T07:26:28.065Z</time></trkpt><trkpt lat="45.7445377" lon="8.9702819"><ele>360.0</ele><time>2026-05-02T07:26:32.997Z</time></trkpt><trkpt lat="45.7444691" lon="8.9702812"><ele>360.0</ele><time>2026-05-02T07:26:38.997Z</time></trkpt><trkpt lat="45.7444008" lon="8.9702799"><ele>360.0</ele><time>2026-05-02T07:26:43.914Z</time></trkpt><trkpt lat="45.7443266" lon="8.9702901"><ele>360.0</ele><time>2026-05-02T07:26:48.096Z</time></trkpt><trkpt lat="45.7442606" lon="8.9703134"><ele>359.1428571428571</ele><time>2026-05-02T07:26:52.003Z</time></trkpt><trkpt lat="45.7441884" lon="8.9703338"><ele>358.28571428571433</ele><time>2026-05-02T07:26:56.011Z</time></trkpt><trkpt lat="45.7441123" lon="8.9703454"><ele>357.42857142857144</ele><time>2026-05-02T07:27:00.939Z</time></trkpt><trkpt lat="45.7440356" lon="8.9703572"><ele>356.57142857142856</ele><time>2026-05-02T07:27:06.056Z</time></trkpt><trkpt lat="45.7439622" lon="8.9703811"><ele>355.71428571428567</ele><time>2026-05-02T07:27:11.184Z</time></trkpt><trkpt lat="45.7438999" lon="8.9704046"><ele>354.8571428571429</ele><time>2026-05-02T07:27:15.302Z</time></trkpt><trkpt lat="45.7438346" lon="8.9704204"><ele>354.0</ele><time>2026-05-02T07:27:19.435Z</time></trkpt><trkpt lat="45.7437703" lon="8.9704317"><ele>354.0</ele><time>2026-05-02T07:27:23.596Z</time></trkpt><trkpt lat="45.7436987" lon="8.970436"><ele>354.0</ele><time>2026-05-02T07:27:28.762Z</time></trkpt><trkpt lat="45.7436348" lon="8.9704312"><ele>354.0</ele><time>2026-05-02T07:27:32.88Z</time></trkpt><trkpt lat="45.7435705" lon="8.9704317"><ele>354.0</ele><time>2026-05-02T07:27:38.045Z</time></trkpt><trkpt lat="45.7435013" lon="8.9704105"><ele>354.0</ele><time>2026-05-02T07:28:01.067Z</time></trkpt><trkpt lat="45.7434301" lon="8.9703948"><ele>354.0</ele><time>2026-05-02T07:28:06.934Z</time></trkpt><trkpt lat="45.74336" lon="8.9703822"><ele>354.0</ele><time>2026-05-02T07:28:16.071Z</time></trkpt><trkpt lat="45.7432913" lon="8.9703865"><ele>354.0</ele><time>2026-05-02T07:28:25.005Z</time></trkpt><trkpt lat="45.7432266" lon="8.9704207"><ele>354.0</ele><time>2026-05-02T07:28:38.05Z</time></trkpt><trkpt lat="45.7431713" lon="8.9704664"><ele>354.0</ele><time>2026-05-02T07:28:41.998Z</time></trkpt><trkpt lat="45.7431196" lon="8.9705453"><ele>354.0</ele><time>2026-05-02T07:28:49.121Z</time></trkpt><trkpt lat="45.7430932" lon="8.9706384"><ele>354.0</ele><time>2026-05-02T07:28:55.013Z</time></trkpt><trkpt lat="45.7430798" lon="8.9707278"><ele>354.0</ele><time>2026-05-02T07:28:59.922Z</time></trkpt><trkpt lat="45.7430676" lon="8.9708212"><ele>354.0</ele><time>2026-05-02T07:29:06.008Z</time></trkpt><trkpt lat="45.7430379" lon="8.9709048"><ele>354.0</ele><time>2026-05-02T07:29:14.978Z</time></trkpt><trkpt lat="45.7429932" lon="8.9708393"><ele>354.0</ele><time>2026-05-02T07:29:26.132Z</time></trkpt><trkpt lat="45.7429655" lon="8.9707409"><ele>354.0</ele><time>2026-05-02T07:29:33.038Z</time></trkpt><trkpt lat="45.7429561" lon="8.9706446"><ele>354.0</ele><time>2026-05-02T07:29:38.999Z</time></trkpt><trkpt lat="45.7429157" lon="8.9705682"><ele>354.0</ele><time>2026-05-02T07:29:48.042Z</time></trkpt><trkpt lat="45.7428459" lon="8.9705548"><ele>354.0</ele><time>2026-05-02T07:29:55.997Z</time></trkpt><trkpt lat="45.7427831" lon="8.9705654"><ele>354.0</ele><time>2026-05-02T07:30:02.001Z</time></trkpt><trkpt lat="45.7427587" lon="8.9706518"><ele>354.6666666666667</ele><time>2026-05-02T07:30:07.97Z</time></trkpt><trkpt lat="45.7427081" lon="8.9708133"><ele>355.3333333333333</ele><time>2026-05-02T07:30:43.747Z</time></trkpt><trkpt lat="45.7426957" lon="8.9709079"><ele>356.0</ele><time>2026-05-02T07:30:48.999Z</time></trkpt><trkpt lat="45.7427215" lon="8.9710279"><ele>356.66666666666663</ele><time>2026-05-02T07:30:59.053Z</time></trkpt><trkpt lat="45.7427079" lon="8.971155"><ele>357.3333333333333</ele><time>2026-05-02T07:31:14.974Z</time></trkpt><trkpt lat="45.7426401" lon="8.9712058"><ele>358.0</ele><time>2026-05-02T07:31:20.013Z</time></trkpt><trkpt lat="45.7425907" lon="8.9712663"><ele>358.5</ele><time>2026-05-02T07:31:24.331Z</time></trkpt><trkpt lat="45.7425304" lon="8.9713121"><ele>359.0</ele><time>2026-05-02T07:31:29.895Z</time></trkpt><trkpt lat="45.7424681" lon="8.971346"><ele>359.5</ele><time>2026-05-02T07:31:35.017Z</time></trkpt><trkpt lat="45.7424048" lon="8.9713911"><ele>360.0</ele><time>2026-05-02T07:31:40.057Z</time></trkpt><trkpt lat="45.7422824" lon="8.9713873"><ele>360.5</ele><time>2026-05-02T07:31:59.999Z</time></trkpt><trkpt lat="45.7422197" lon="8.9713672"><ele>361.0</ele><time>2026-05-02T07:32:10.998Z</time></trkpt><trkpt lat="45.742167" lon="8.9712739"><ele>361.0</ele><time>2026-05-02T07:32:22.034Z</time></trkpt><trkpt lat="45.7421021" lon="8.9712316"><ele>361.0</ele><time>2026-05-02T07:32:29.077Z</time></trkpt><trkpt lat="45.742036" lon="8.9712096"><ele>361.0</ele><time>2026-05-02T07:32:35.034Z</time></trkpt><trkpt lat="45.7419652" lon="8.9711919"><ele>361.0</ele><time>2026-05-02T07:32:43.051Z</time></trkpt><trkpt lat="45.7418921" lon="8.9711814"><ele>361.0</ele><time>2026-05-02T07:32:50.427Z</time></trkpt><trkpt lat="45.7418221" lon="8.9711496"><ele>361.0</ele><time>2026-05-02T07:32:57.118Z</time></trkpt><trkpt lat="45.7417531" lon="8.9711523"><ele>361.0</ele><time>2026-05-02T07:33:02.064Z</time></trkpt><trkpt lat="45.7416863" lon="8.9711455"><ele>361.0</ele><time>2026-05-02T07:33:06.073Z</time></trkpt><trkpt lat="45.7416153" lon="8.9711701"><ele>361.0</ele><time>2026-05-02T07:33:10.998Z</time></trkpt><trkpt lat="45.7415545" lon="8.9711345"><ele>361.0</ele><time>2026-05-02T07:33:20.999Z</time></trkpt><trkpt lat="45.7414909" lon="8.9711171"><ele>361.0</ele><time>2026-05-02T07:33:24.968Z</time></trkpt><trkpt lat="45.7414221" lon="8.9711059"><ele>361.0</ele><time>2026-05-02T07:33:31.03Z</time></trkpt><trkpt lat="45.7413548" lon="8.9711141"><ele>361.0</ele><time>2026-05-02T07:33:36.581Z</time></trkpt><trkpt lat="45.7412774" lon="8.9711045"><ele>361.0</ele><time>2026-05-02T07:33:43.068Z</time></trkpt><trkpt lat="45.741211" lon="8.9710989"><ele>361.0</ele><time>2026-05-02T07:33:48.229Z</time></trkpt><trkpt lat="45.74114" lon="8.9711124"><ele>361.0</ele><time>2026-05-02T07:33:54.736Z</time></trkpt><trkpt lat="45.7410773" lon="8.9711277"><ele>361.0</ele><time>2026-05-02T07:34:00.019Z</time></trkpt><trkpt lat="45.7410151" lon="8.9711492"><ele>361.0</ele><time>2026-05-02T07:34:03.936Z</time></trkpt><trkpt lat="45.74094" lon="8.9711665"><ele>361.0</ele><time>2026-05-02T07:34:09.067Z</time></trkpt><trkpt lat="45.7408688" lon="8.9711826"><ele>361.0</ele><time>2026-05-02T07:34:13.996Z</time></trkpt><trkpt lat="45.7408029" lon="8.9711976"><ele>361.0</ele><time>2026-05-02T07:34:18.001Z</time></trkpt><trkpt lat="45.7407293" lon="8.9711941"><ele>361.14285714285717</ele><time>2026-05-02T07:34:23.052Z</time></trkpt><trkpt lat="45.7406649" lon="8.971189"><ele>361.2857142857143</ele><time>2026-05-02T07:34:27.999Z</time></trkpt><trkpt lat="45.7405984" lon="8.9711922"><ele>361.42857142857144</ele><time>2026-05-02T07:34:35.997Z</time></trkpt><trkpt lat="45.7405358" lon="8.9712051"><ele>361.57142857142856</ele><time>2026-05-02T07:34:42.132Z</time></trkpt><trkpt lat="45.7404717" lon="8.9712468"><ele>361.71428571428567</ele><time>2026-05-02T07:34:48.493Z</time></trkpt><trkpt lat="45.7403964" lon="8.9712614"><ele>361.85714285714283</ele><time>2026-05-02T07:34:56.027Z</time></trkpt><trkpt lat="45.7403216" lon="8.9712788"><ele>362.0</ele><time>2026-05-02T07:35:00.998Z</time></trkpt><trkpt lat="45.7402638" lon="8.9713346"><ele>362.1428571428571</ele><time>2026-05-02T07:35:06.391Z</time></trkpt><trkpt lat="45.7402076" lon="8.9714048"><ele>362.2857142857143</ele><time>2026-05-02T07:35:13.722Z</time></trkpt><trkpt lat="45.740151" lon="8.9714733"><ele>362.42857142857144</ele><time>2026-05-02T07:35:20.14Z</time></trkpt><trkpt lat="45.7400801" lon="8.9715183"><ele>362.57142857142856</ele><time>2026-05-02T07:35:24.339Z</time></trkpt><trkpt lat="45.7400194" lon="8.971556"><ele>362.7142857142857</ele><time>2026-05-02T07:35:29.014Z</time></trkpt><trkpt lat="45.7399549" lon="8.9715219"><ele>362.85714285714283</ele><time>2026-05-02T07:35:35.084Z</time></trkpt><trkpt lat="45.7398817" lon="8.9715424"><ele>363.0</ele><time>2026-05-02T07:35:40.061Z</time></trkpt><trkpt lat="45.7398198" lon="8.9715646"><ele>363.0</ele><time>2026-05-02T07:35:46.998Z</time></trkpt><trkpt lat="45.7397326" lon="8.9716261"><ele>363.0</ele><time>2026-05-02T07:35:52.998Z</time></trkpt><trkpt lat="45.7396776" lon="8.9716776"><ele>363.0</ele><time>2026-05-02T07:35:56.267Z</time></trkpt><trkpt lat="45.7396155" lon="8.9717248"><ele>363.0</ele><time>2026-05-02T07:36:02.573Z</time></trkpt><trkpt lat="45.7395424" lon="8.9717497"><ele>363.0</ele><time>2026-05-02T07:36:08.795Z</time></trkpt><trkpt lat="45.7394784" lon="8.9717738"><ele>363.0</ele><time>2026-05-02T07:36:14.001Z</time></trkpt><trkpt lat="45.7393642" lon="8.971835"><ele>362.3333333333333</ele><time>2026-05-02T07:36:24.052Z</time></trkpt><trkpt lat="45.739294" lon="8.971866"><ele>361.6666666666667</ele><time>2026-05-02T07:36:27.152Z</time></trkpt><trkpt lat="45.7392342" lon="8.9719154"><ele>361.0</ele><time>2026-05-02T07:36:32.435Z</time></trkpt><trkpt lat="45.7392078" lon="8.9720077"><ele>360.33333333333337</ele><time>2026-05-02T07:36:46.951Z</time></trkpt><trkpt lat="45.7392182" lon="8.9721"><ele>359.6666666666667</ele><time>2026-05-02T07:36:55.032Z</time></trkpt><trkpt lat="45.7392476" lon="8.9722003"><ele>359.0</ele><time>2026-05-02T07:37:01Z</time></trkpt><trkpt lat="45.7392795" lon="8.9723467"><ele>359.0</ele><time>2026-05-02T07:37:18.054Z</time></trkpt><trkpt lat="45.7392068" lon="8.9723809"><ele>359.0</ele><time>2026-05-02T07:37:35.379Z</time></trkpt><trkpt lat="45.7391363" lon="8.9724139"><ele>359.0</ele><time>2026-05-02T07:37:41.694Z</time></trkpt><trkpt lat="45.739072" lon="8.9724495"><ele>359.0</ele><time>2026-05-02T07:37:46.918Z</time></trkpt><trkpt lat="45.7390046" lon="8.9724786"><ele>359.0</ele><time>2026-05-02T07:37:53.078Z</time></trkpt><trkpt lat="45.7389393" lon="8.9724747"><ele>359.0</ele><time>2026-05-02T07:37:59.058Z</time></trkpt><trkpt lat="45.7388738" lon="8.9724574"><ele>359.0</ele><time>2026-05-02T07:38:05.011Z</time></trkpt><trkpt lat="45.7388087" lon="8.9724398"><ele>359.0</ele><time>2026-05-02T07:38:11.254Z</time></trkpt><trkpt lat="45.7387411" lon="8.9724293"><ele>359.0</ele><time>2026-05-02T07:38:16.534Z</time></trkpt><trkpt lat="45.738663" lon="8.9724265"><ele>359.0</ele><time>2026-05-02T07:38:21.719Z</time></trkpt><trkpt lat="45.7385835" lon="8.9724195"><ele>359.0</ele><time>2026-05-02T07:38:25.951Z</time></trkpt><trkpt lat="45.7385162" lon="8.972419"><ele>359.0</ele><time>2026-05-02T07:38:32.999Z</time></trkpt><trkpt lat="45.738453" lon="8.9724321"><ele>359.0</ele><time>2026-05-02T07:38:39.031Z</time></trkpt><trkpt lat="45.7383756" lon="8.9724251"><ele>359.0</ele><time>2026-05-02T07:38:44.071Z</time></trkpt><trkpt lat="45.7383072" lon="8.9724047"><ele>359.0</ele><time>2026-05-02T07:38:50.027Z</time></trkpt><trkpt lat="45.7382451" lon="8.9723843"><ele>359.0</ele><time>2026-05-02T07:38:55.012Z</time></trkpt><trkpt lat="45.7381859" lon="8.9723397"><ele>359.0</ele><time>2026-05-02T07:39:01.021Z</time></trkpt><trkpt lat="45.7381123" lon="8.9723261"><ele>359.0</ele><time>2026-05-02T07:39:06.062Z</time></trkpt><trkpt lat="45.7380398" lon="8.9723131"><ele>359.0</ele><time>2026-05-02T07:39:10.912Z</time></trkpt><trkpt lat="45.7379647" lon="8.9723"><ele>359.0</ele><time>2026-05-02T07:39:17.272Z</time></trkpt><trkpt lat="45.7378956" lon="8.9722777"><ele>359.0</ele><time>2026-05-02T07:39:23.555Z</time></trkpt><trkpt lat="45.7378329" lon="8.972232"><ele>359.0</ele><time>2026-05-02T07:39:28.914Z</time></trkpt><trkpt lat="45.7377706" lon="8.9721727"><ele>359.0</ele><time>2026-05-02T07:39:35.04Z</time></trkpt><trkpt lat="45.737712" lon="8.9721309"><ele>359.0</ele><time>2026-05-02T07:39:40.14Z</time></trkpt><trkpt lat="45.7376469" lon="8.9720929"><ele>359.0</ele><time>2026-05-02T07:39:45.515Z</time></trkpt><trkpt lat="45.7375847" lon="8.9720609"><ele>359.0</ele><time>2026-05-02T07:39:49.854Z</time></trkpt><trkpt lat="45.7375203" lon="8.9720225"><ele>359.0</ele><time>2026-05-02T07:39:54.134Z</time></trkpt><trkpt lat="45.7374607" lon="8.971971"><ele>359.0</ele><time>2026-05-02T07:39:58.062Z</time></trkpt><trkpt lat="45.7374026" lon="8.971898"><ele>359.42857142857144</ele><time>2026-05-02T07:40:02.865Z</time></trkpt><trkpt lat="45.7373431" lon="8.971829"><ele>359.8571428571429</ele><time>2026-05-02T07:40:07.116Z</time></trkpt><trkpt lat="45.7372772" lon="8.9717669"><ele>360.2857142857143</ele><time>2026-05-02T07:40:12.033Z</time></trkpt><trkpt lat="45.7372276" lon="8.9716846"><ele>360.7142857142857</ele><time>2026-05-02T07:40:18.353Z</time></trkpt><trkpt lat="45.7371768" lon="8.9716285"><ele>361.1428571428571</ele><time>2026-05-02T07:40:25.982Z</time></trkpt><trkpt lat="45.7371166" lon="8.9715826"><ele>361.57142857142856</ele><time>2026-05-02T07:40:31.049Z</time></trkpt><trkpt lat="45.7370797" lon="8.9715061"><ele>362.0</ele><time>2026-05-02T07:40:37.952Z</time></trkpt><trkpt lat="45.7370276" lon="8.9714448"><ele>361.2857142857143</ele><time>2026-05-02T07:40:44.933Z</time></trkpt><trkpt lat="45.7369835" lon="8.9713765"><ele>360.57142857142856</ele><time>2026-05-02T07:40:51.94Z</time></trkpt><trkpt lat="45.7369401" lon="8.9712932"><ele>359.8571428571429</ele><time>2026-05-02T07:40:58.998Z</time></trkpt><trkpt lat="45.7368799" lon="8.9712315"><ele>359.1428571428571</ele><time>2026-05-02T07:41:05.998Z</time></trkpt><trkpt lat="45.7368213" lon="8.9711786"><ele>358.42857142857144</ele><time>2026-05-02T07:41:15.031Z</time></trkpt><trkpt lat="45.7367726" lon="8.9710929"><ele>357.7142857142857</ele><time>2026-05-02T07:41:20.999Z</time></trkpt><trkpt lat="45.7367216" lon="8.9710291"><ele>357.0</ele><time>2026-05-02T07:41:41.999Z</time></trkpt><trkpt lat="45.7366602" lon="8.9709739"><ele>357.0</ele><time>2026-05-02T07:41:45.117Z</time></trkpt><trkpt lat="45.7365948" lon="8.9709505"><ele>357.0</ele><time>2026-05-02T07:41:52.939Z</time></trkpt><trkpt lat="45.7365383" lon="8.9709076"><ele>357.0</ele><time>2026-05-02T07:41:57.998Z</time></trkpt><trkpt lat="45.7364698" lon="8.9709089"><ele>357.0</ele><time>2026-05-02T07:42:03.022Z</time></trkpt><trkpt lat="45.7363958" lon="8.970893"><ele>357.0</ele><time>2026-05-02T07:42:10.009Z</time></trkpt><trkpt lat="45.7363286" lon="8.9709"><ele>357.0</ele><time>2026-05-02T07:42:16.549Z</time></trkpt><trkpt lat="45.7362655" lon="8.9708869"><ele>357.0</ele><time>2026-05-02T07:42:24.034Z</time></trkpt><trkpt lat="45.736197" lon="8.9708528"><ele>355.7142857142857</ele><time>2026-05-02T07:42:29.058Z</time></trkpt><trkpt lat="45.7361305" lon="8.9708141"><ele>354.42857142857144</ele><time>2026-05-02T07:42:34.998Z</time></trkpt><trkpt lat="45.7360662" lon="8.9708082"><ele>353.1428571428571</ele><time>2026-05-02T07:42:39.955Z</time></trkpt><trkpt lat="45.7359993" lon="8.9708074"><ele>351.8571428571429</ele><time>2026-05-02T07:42:47.005Z</time></trkpt><trkpt lat="45.7359338" lon="8.9707885"><ele>350.57142857142856</ele><time>2026-05-02T07:42:52.045Z</time></trkpt><trkpt lat="45.7358663" lon="8.9707736"><ele>349.2857142857143</ele><time>2026-05-02T07:42:58.257Z</time></trkpt><trkpt lat="45.7357966" lon="8.9707619"><ele>348.0</ele><time>2026-05-02T07:43:04.998Z</time></trkpt><trkpt lat="45.7357326" lon="8.9707519"><ele>348.0</ele><time>2026-05-02T07:43:11.058Z</time></trkpt><trkpt lat="45.7356662" lon="8.9707818"><ele>348.0</ele><time>2026-05-02T07:43:16.097Z</time></trkpt><trkpt lat="45.7356015" lon="8.9708312"><ele>348.0</ele><time>2026-05-02T07:43:21.022Z</time></trkpt><trkpt lat="45.7355443" lon="8.9708912"><ele>348.0</ele><time>2026-05-02T07:43:26.998Z</time></trkpt><trkpt lat="45.735518" lon="8.9709751"><ele>348.0</ele><time>2026-05-02T07:43:33.997Z</time></trkpt><trkpt lat="45.735498" lon="8.9710674"><ele>348.0</ele><time>2026-05-02T07:43:39.036Z</time></trkpt><trkpt lat="45.7354724" lon="8.9711541"><ele>348.0</ele><time>2026-05-02T07:43:44.312Z</time></trkpt><trkpt lat="45.7354231" lon="8.9712113"><ele>348.0</ele><time>2026-05-02T07:43:49.954Z</time></trkpt><trkpt lat="45.7354346" lon="8.9711119"><ele>348.0</ele><time>2026-05-02T07:44:07.189Z</time></trkpt><trkpt lat="45.7354336" lon="8.971021"><ele>348.0</ele><time>2026-05-02T07:44:11.371Z</time></trkpt><trkpt lat="45.7354316" lon="8.9709154"><ele>348.0</ele><time>2026-05-02T07:44:17.644Z</time></trkpt><trkpt lat="45.7354797" lon="8.9708543"><ele>348.0</ele><time>2026-05-02T07:44:27.005Z</time></trkpt><trkpt lat="45.7355009" lon="8.9707643"><ele>348.0</ele><time>2026-05-02T07:44:32.035Z</time></trkpt><trkpt lat="45.7355092" lon="8.9706724"><ele>348.0</ele><time>2026-05-02T07:44:36.044Z</time></trkpt><trkpt lat="45.7355013" lon="8.9705711"><ele>348.0</ele><time>2026-05-02T07:44:41.084Z</time></trkpt><trkpt lat="45.7355372" lon="8.9704908"><ele>348.0</ele><time>2026-05-02T07:44:48.936Z</time></trkpt><trkpt lat="45.7355695" lon="8.9703946"><ele>348.0</ele><time>2026-05-02T07:44:55.472Z</time></trkpt><trkpt lat="45.7355996" lon="8.9703123"><ele>348.0</ele><time>2026-05-02T07:44:59.999Z</time></trkpt><trkpt lat="45.7355969" lon="8.9702066"><ele>348.0</ele><time>2026-05-02T07:45:06.999Z</time></trkpt><trkpt lat="45.7355891" lon="8.9701032"><ele>348.0</ele><time>2026-05-02T07:45:12.014Z</time></trkpt><trkpt lat="45.7355613" lon="8.9700029"><ele>348.0</ele><time>2026-05-02T07:45:18.023Z</time></trkpt><trkpt lat="45.7355185" lon="8.9699255"><ele>346.42857142857144</ele><time>2026-05-02T07:45:23.005Z</time></trkpt><trkpt lat="45.7354929" lon="8.969833"><ele>344.8571428571429</ele><time>2026-05-02T07:45:28.094Z</time></trkpt><trkpt lat="45.7354685" lon="8.9697396"><ele>343.28571428571433</ele><time>2026-05-02T07:45:33Z</time></trkpt><trkpt lat="45.7354483" lon="8.9696463"><ele>341.7142857142857</ele><time>2026-05-02T07:45:38.009Z</time></trkpt><trkpt lat="45.7354662" lon="8.9695574"><ele>340.14285714285717</ele><time>2026-05-02T07:45:43.999Z</time></trkpt><trkpt lat="45.735445" lon="8.9694519"><ele>338.5714285714286</ele><time>2026-05-02T07:45:50.035Z</time></trkpt><trkpt lat="45.7354466" lon="8.969357"><ele>337.0</ele><time>2026-05-02T07:45:55.077Z</time></trkpt><trkpt lat="45.7354642" lon="8.9692689"><ele>336.7142857142857</ele><time>2026-05-02T07:45:58.999Z</time></trkpt><trkpt lat="45.7354806" lon="8.9691782"><ele>336.42857142857144</ele><time>2026-05-02T07:46:04.034Z</time></trkpt><trkpt lat="45.7354698" lon="8.9690737"><ele>336.1428571428571</ele><time>2026-05-02T07:46:10.08Z</time></trkpt><trkpt lat="45.7354604" lon="8.9689708"><ele>335.8571428571429</ele><time>2026-05-02T07:46:17.066Z</time></trkpt><trkpt lat="45.7354589" lon="8.968862"><ele>335.57142857142856</ele><time>2026-05-02T07:46:21.998Z</time></trkpt><trkpt lat="45.7354776" lon="8.9687736"><ele>335.2857142857143</ele><time>2026-05-02T07:46:26.115Z</time></trkpt><trkpt lat="45.7355026" lon="8.9686832"><ele>335.0</ele><time>2026-05-02T07:46:31.119Z</time></trkpt><trkpt lat="45.7355168" lon="8.9685923"><ele>334.99999999999994</ele><time>2026-05-02T07:46:36.08Z</time></trkpt><trkpt lat="45.7355314" lon="8.9684934"><ele>335.0</ele><time>2026-05-02T07:46:43.998Z</time></trkpt><trkpt lat="45.7355647" lon="8.968351"><ele>335.0</ele><time>2026-05-02T07:47:19.02Z</time></trkpt><trkpt lat="45.7355794" lon="8.9682527"><ele>335.0</ele><time>2026-05-02T07:47:23.96Z</time></trkpt><trkpt lat="45.7356058" lon="8.9681688"><ele>335.0</ele><time>2026-05-02T07:47:29.997Z</time></trkpt><trkpt lat="45.7356285" lon="8.9680841"><ele>334.99999999999994</ele><time>2026-05-02T07:47:35.07Z</time></trkpt><trkpt lat="45.7356462" lon="8.9679931"><ele>335.0</ele><time>2026-05-02T07:47:40.001Z</time></trkpt><trkpt lat="45.7356626" lon="8.9678924"><ele>334.85714285714283</ele><time>2026-05-02T07:47:45.032Z</time></trkpt><trkpt lat="45.7356809" lon="8.9677976"><ele>334.7142857142857</ele><time>2026-05-02T07:47:50.998Z</time></trkpt><trkpt lat="45.7356802" lon="8.9676842"><ele>334.57142857142856</ele><time>2026-05-02T07:47:57.998Z</time></trkpt><trkpt lat="45.7356703" lon="8.967573"><ele>334.42857142857144</ele><time>2026-05-02T07:48:03.132Z</time></trkpt><trkpt lat="45.7356789" lon="8.9674805"><ele>334.2857142857143</ele><time>2026-05-02T07:48:07.023Z</time></trkpt><trkpt lat="45.7356979" lon="8.9673803"><ele>334.1428571428571</ele><time>2026-05-02T07:48:13.072Z</time></trkpt><trkpt lat="45.7357241" lon="8.9672845"><ele>334.0</ele><time>2026-05-02T07:48:19.997Z</time></trkpt><trkpt lat="45.7357249" lon="8.9671873"><ele>334.8333333333333</ele><time>2026-05-02T07:48:26.049Z</time></trkpt><trkpt lat="45.7357266" lon="8.9670927"><ele>335.66666666666663</ele><time>2026-05-02T07:48:31.999Z</time></trkpt><trkpt lat="45.7357152" lon="8.9669979"><ele>336.5</ele><time>2026-05-02T07:48:36.983Z</time></trkpt><trkpt lat="45.7357374" lon="8.9668963"><ele>337.3333333333333</ele><time>2026-05-02T07:48:47Z</time></trkpt><trkpt lat="45.7357024" lon="8.9667023"><ele>338.1666666666667</ele><time>2026-05-02T07:49:15.998Z</time></trkpt><trkpt lat="45.7356682" lon="8.9666074"><ele>339.0</ele><time>2026-05-02T07:49:21.098Z</time></trkpt><trkpt lat="45.7356349" lon="8.9665248"><ele>340.0</ele><time>2026-05-02T07:49:28.03Z</time></trkpt><trkpt lat="45.7355822" lon="8.966473"><ele>341.0</ele><time>2026-05-02T07:49:35.113Z</time></trkpt><trkpt lat="45.7355148" lon="8.9664401"><ele>342.0</ele><time>2026-05-02T07:49:41.997Z</time></trkpt><trkpt lat="45.7354456" lon="8.9664235"><ele>343.0</ele><time>2026-05-02T07:49:46.985Z</time></trkpt><trkpt lat="45.7353856" lon="8.9663941"><ele>344.0</ele><time>2026-05-02T07:49:51.027Z</time></trkpt><trkpt lat="45.7353368" lon="8.9663324"><ele>345.0</ele><time>2026-05-02T07:49:56.067Z</time></trkpt><trkpt lat="45.7353289" lon="8.9662205"><ele>346.0</ele><time>2026-05-02T07:50:13.018Z</time></trkpt><trkpt lat="45.7353681" lon="8.966147"><ele>346.0</ele><time>2026-05-02T07:50:20.006Z</time></trkpt><trkpt lat="45.735399" lon="8.9660543"><ele>346.0</ele><time>2026-05-02T07:50:25.114Z</time></trkpt><trkpt lat="45.7354451" lon="8.9659924"><ele>346.0</ele><time>2026-05-02T07:50:28.981Z</time></trkpt><trkpt lat="45.7355086" lon="8.9659337"><ele>346.0</ele><time>2026-05-02T07:50:33.974Z</time></trkpt><trkpt lat="45.7355674" lon="8.9658974"><ele>346.0</ele><time>2026-05-02T07:50:44.059Z</time></trkpt><trkpt lat="45.7356351" lon="8.9658075"><ele>346.0</ele><time>2026-05-02T07:51:00.973Z</time></trkpt><trkpt lat="45.7356929" lon="8.9657707"><ele>346.0</ele><time>2026-05-02T07:51:09.03Z</time></trkpt><trkpt lat="45.7358327" lon="8.9657342"><ele>347.57142857142856</ele><time>2026-05-02T07:51:27.431Z</time></trkpt><trkpt lat="45.7358959" lon="8.9657338"><ele>349.14285714285717</ele><time>2026-05-02T07:51:32.999Z</time></trkpt><trkpt lat="45.7359605" lon="8.965691"><ele>350.7142857142857</ele><time>2026-05-02T07:51:38.079Z</time></trkpt><trkpt lat="45.7360254" lon="8.9656684"><ele>352.2857142857143</ele><time>2026-05-02T07:51:45.875Z</time></trkpt><trkpt lat="45.736104" lon="8.9656537"><ele>353.8571428571429</ele><time>2026-05-02T07:51:52.945Z</time></trkpt><trkpt lat="45.7361755" lon="8.9656396"><ele>355.42857142857144</ele><time>2026-05-02T07:52:00.002Z</time></trkpt><trkpt lat="45.7362144" lon="8.9655565"><ele>357.0</ele><time>2026-05-02T07:52:09.092Z</time></trkpt><trkpt lat="45.7362529" lon="8.9654776"><ele>357.14285714285717</ele><time>2026-05-02T07:52:13.827Z</time></trkpt><trkpt lat="45.7362913" lon="8.9654061"><ele>357.2857142857143</ele><time>2026-05-02T07:52:20.086Z</time></trkpt><trkpt lat="45.7363442" lon="8.9653289"><ele>357.42857142857144</ele><time>2026-05-02T07:52:24.997Z</time></trkpt><trkpt lat="45.7363995" lon="8.965255"><ele>357.57142857142856</ele><time>2026-05-02T07:52:30.013Z</time></trkpt><trkpt lat="45.7364213" lon="8.9651637"><ele>357.7142857142857</ele><time>2026-05-02T07:52:36.095Z</time></trkpt><trkpt lat="45.7364304" lon="8.9650606"><ele>357.8571428571429</ele><time>2026-05-02T07:52:42.009Z</time></trkpt><trkpt lat="45.7364391" lon="8.9649656"><ele>358.0</ele><time>2026-05-02T07:52:47.436Z</time></trkpt><trkpt lat="45.7364779" lon="8.9648872"><ele>358.5714285714286</ele><time>2026-05-02T07:52:53.958Z</time></trkpt><trkpt lat="45.7365287" lon="8.9648297"><ele>359.14285714285717</ele><time>2026-05-02T07:53:03.002Z</time></trkpt><trkpt lat="45.7365786" lon="8.9647687"><ele>359.7142857142857</ele><time>2026-05-02T07:53:08.042Z</time></trkpt><trkpt lat="45.7366402" lon="8.964727"><ele>360.28571428571433</ele><time>2026-05-02T07:53:13.074Z</time></trkpt><trkpt lat="45.7367053" lon="8.9646881"><ele>360.85714285714283</ele><time>2026-05-02T07:53:17.085Z</time></trkpt><trkpt lat="45.7367562" lon="8.9646333"><ele>361.42857142857144</ele><time>2026-05-02T07:53:26.026Z</time></trkpt><trkpt lat="45.736836" lon="8.9646039"><ele>362.0</ele><time>2026-05-02T07:53:35.075Z</time></trkpt><trkpt lat="45.7369005" lon="8.9645576"><ele>362.0</ele><time>2026-05-02T07:53:46.005Z</time></trkpt><trkpt lat="45.7369665" lon="8.9645241"><ele>362.0</ele><time>2026-05-02T07:53:53.058Z</time></trkpt><trkpt lat="45.7370292" lon="8.9645505"><ele>362.0</ele><time>2026-05-02T07:54:04.055Z</time></trkpt><trkpt lat="45.737097" lon="8.9645275"><ele>362.0</ele><time>2026-05-02T07:54:11.042Z</time></trkpt><trkpt lat="45.7371619" lon="8.9645169"><ele>362.0</ele><time>2026-05-02T07:54:19.06Z</time></trkpt><trkpt lat="45.7372297" lon="8.9645231"><ele>362.0</ele><time>2026-05-02T07:54:26.047Z</time></trkpt><trkpt lat="45.7373065" lon="8.9645285"><ele>362.0</ele><time>2026-05-02T07:54:32.132Z</time></trkpt><trkpt lat="45.737372" lon="8.9645133"><ele>362.0</ele><time>2026-05-02T07:54:36.002Z</time></trkpt><trkpt lat="45.737438" lon="8.9645099"><ele>362.0</ele><time>2026-05-02T07:54:40.022Z</time></trkpt><trkpt lat="45.7375072" lon="8.9644851"><ele>362.0</ele><time>2026-05-02T07:54:46.062Z</time></trkpt><trkpt lat="45.7375737" lon="8.964445"><ele>362.0</ele><time>2026-05-02T07:54:51.018Z</time></trkpt><trkpt lat="45.7376477" lon="8.964429"><ele>362.0</ele><time>2026-05-02T07:54:56.058Z</time></trkpt><trkpt lat="45.7377129" lon="8.9644249"><ele>362.0</ele><time>2026-05-02T07:55:01.115Z</time></trkpt><trkpt lat="45.7377789" lon="8.9644466"><ele>362.0</ele><time>2026-05-02T07:55:06.024Z</time></trkpt><trkpt lat="45.7378491" lon="8.9644333"><ele>362.0</ele><time>2026-05-02T07:55:12.119Z</time></trkpt><trkpt lat="45.7379175" lon="8.9644558"><ele>362.0</ele><time>2026-05-02T07:55:17.543Z</time></trkpt><trkpt lat="45.7379894" lon="8.9644891"><ele>362.0</ele><time>2026-05-02T07:55:23.995Z</time></trkpt><trkpt lat="45.7380344" lon="8.9645719"><ele>362.0</ele><time>2026-05-02T07:55:30.078Z</time></trkpt><trkpt lat="45.7381111" lon="8.9646312"><ele>362.0</ele><time>2026-05-02T07:55:43.022Z</time></trkpt><trkpt lat="45.7381809" lon="8.9646576"><ele>362.0</ele><time>2026-05-02T07:55:47.48Z</time></trkpt><trkpt lat="45.7382716" lon="8.9645739"><ele>362.0</ele><time>2026-05-02T07:55:57Z</time></trkpt><trkpt lat="45.7382552" lon="8.9644813"><ele>362.0</ele><time>2026-05-02T07:57:59.025Z</time></trkpt><trkpt lat="45.7381986" lon="8.964441"><ele>362.0</ele><time>2026-05-02T08:02:05.04Z</time></trkpt><trkpt lat="45.7381929" lon="8.9645436"><ele>362.0</ele><time>2026-05-02T08:02:13.999Z</time></trkpt><trkpt lat="45.738153" lon="8.9646251"><ele>362.0</ele><time>2026-05-02T08:02:19.337Z</time></trkpt><trkpt lat="45.7380839" lon="8.9646538"><ele>362.0</ele><time>2026-05-02T08:02:24.781Z</time></trkpt><trkpt lat="45.7380609" lon="8.9645536"><ele>362.0</ele><time>2026-05-02T08:02:32.998Z</time></trkpt><trkpt lat="45.7380347" lon="8.9644678"><ele>362.0</ele><time>2026-05-02T08:02:39.989Z</time></trkpt><trkpt lat="45.7379843" lon="8.964406"><ele>362.0</ele><time>2026-05-02T08:02:53.114Z</time></trkpt><trkpt lat="45.7379103" lon="8.9644291"><ele>362.0</ele><time>2026-05-02T08:02:58.193Z</time></trkpt><trkpt lat="45.7378415" lon="8.9644378"><ele>362.0</ele><time>2026-05-02T08:03:03.834Z</time></trkpt><trkpt lat="45.7377794" lon="8.964423"><ele>362.0</ele><time>2026-05-02T08:03:10.553Z</time></trkpt><trkpt lat="45.7377156" lon="8.9644408"><ele>362.0</ele><time>2026-05-02T08:03:16.998Z</time></trkpt><trkpt lat="45.737651" lon="8.964454"><ele>362.0</ele><time>2026-05-02T08:03:23.517Z</time></trkpt><trkpt lat="45.7375816" lon="8.9644516"><ele>362.0</ele><time>2026-05-02T08:03:29.003Z</time></trkpt><trkpt lat="45.7375148" lon="8.9644812"><ele>362.0</ele><time>2026-05-02T08:03:36.915Z</time></trkpt><trkpt lat="45.7374469" lon="8.9645005"><ele>362.0</ele><time>2026-05-02T08:03:43.035Z</time></trkpt><trkpt lat="45.7373846" lon="8.9645142"><ele>362.0</ele><time>2026-05-02T08:03:46.975Z</time></trkpt><trkpt lat="45.7373215" lon="8.9645176"><ele>362.0</ele><time>2026-05-02T08:03:52.027Z</time></trkpt><trkpt lat="45.7372545" lon="8.9645224"><ele>362.0</ele><time>2026-05-02T08:04:00.021Z</time></trkpt><trkpt lat="45.7371896" lon="8.9645166"><ele>362.0</ele><time>2026-05-02T08:04:07.032Z</time></trkpt><trkpt lat="45.7371145" lon="8.9645353"><ele>362.0</ele><time>2026-05-02T08:04:13Z</time></trkpt><trkpt lat="45.7370423" lon="8.9645461"><ele>362.0</ele><time>2026-05-02T08:04:19.059Z</time></trkpt><trkpt lat="45.736972" lon="8.9645622"><ele>362.0</ele><time>2026-05-02T08:04:26.999Z</time></trkpt><trkpt lat="45.7369069" lon="8.9645822"><ele>362.0</ele><time>2026-05-02T08:04:32.014Z</time></trkpt><trkpt lat="45.7368475" lon="8.9646132"><ele>362.0</ele><time>2026-05-02T08:04:37.493Z</time></trkpt><trkpt lat="45.7367737" lon="8.9646502"><ele>362.0</ele><time>2026-05-02T08:04:41.999Z</time></trkpt><trkpt lat="45.7366964" lon="8.9646907"><ele>362.0</ele><time>2026-05-02T08:04:45.999Z</time></trkpt><trkpt lat="45.7366165" lon="8.9647695"><ele>362.1428571428571</ele><time>2026-05-02T08:05:01.097Z</time></trkpt><trkpt lat="45.7365463" lon="8.9648182"><ele>362.2857142857143</ele><time>2026-05-02T08:05:04.999Z</time></trkpt><trkpt lat="45.7364935" lon="8.9648723"><ele>362.42857142857144</ele><time>2026-05-02T08:05:11.121Z</time></trkpt><trkpt lat="45.7364459" lon="8.9649385"><ele>362.57142857142856</ele><time>2026-05-02T08:05:18.049Z</time></trkpt><trkpt lat="45.736407" lon="8.9650123"><ele>362.7142857142857</ele><time>2026-05-02T08:05:25.462Z</time></trkpt><trkpt lat="45.7363846" lon="8.9651088"><ele>362.85714285714283</ele><time>2026-05-02T08:05:36.113Z</time></trkpt><trkpt lat="45.7363516" lon="8.9652022"><ele>363.0</ele><time>2026-05-02T08:05:41.999Z</time></trkpt><trkpt lat="45.7363198" lon="8.9652842"><ele>362.2857142857143</ele><time>2026-05-02T08:05:50.015Z</time></trkpt><trkpt lat="45.7362839" lon="8.9653697"><ele>361.57142857142856</ele><time>2026-05-02T08:05:59.056Z</time></trkpt><trkpt lat="45.7362496" lon="8.9654609"><ele>360.8571428571429</ele><time>2026-05-02T08:06:05.012Z</time></trkpt><trkpt lat="45.7362128" lon="8.9655397"><ele>360.1428571428571</ele><time>2026-05-02T08:06:09.937Z</time></trkpt><trkpt lat="45.7361649" lon="8.9656147"><ele>359.42857142857144</ele><time>2026-05-02T08:06:16.008Z</time></trkpt><trkpt lat="45.7361043" lon="8.9656576"><ele>358.7142857142857</ele><time>2026-05-02T08:06:24.026Z</time></trkpt><trkpt lat="45.7360315" lon="8.9656905"><ele>358.0</ele><time>2026-05-02T08:06:31.013Z</time></trkpt><trkpt lat="45.7359606" lon="8.9657179"><ele>357.8571428571429</ele><time>2026-05-02T08:06:36.258Z</time></trkpt><trkpt lat="45.7358983" lon="8.9657453"><ele>357.7142857142857</ele><time>2026-05-02T08:06:40.45Z</time></trkpt><trkpt lat="45.7358355" lon="8.9657928"><ele>357.57142857142856</ele><time>2026-05-02T08:06:45.853Z</time></trkpt><trkpt lat="45.735764" lon="8.9658398"><ele>357.42857142857144</ele><time>2026-05-02T08:06:51.057Z</time></trkpt><trkpt lat="45.7356944" lon="8.9658478"><ele>357.2857142857143</ele><time>2026-05-02T08:06:56.115Z</time></trkpt><trkpt lat="45.7356263" lon="8.9658474"><ele>357.14285714285717</ele><time>2026-05-02T08:07:01.674Z</time></trkpt><trkpt lat="45.7355705" lon="8.9658001"><ele>357.0</ele><time>2026-05-02T08:07:08.131Z</time></trkpt><trkpt lat="45.7355338" lon="8.9657254"><ele>357.0</ele><time>2026-05-02T08:07:16.914Z</time></trkpt><trkpt lat="45.7355524" lon="8.9656378"><ele>357.0</ele><time>2026-05-02T08:07:30.001Z</time></trkpt><trkpt lat="45.7355092" lon="8.9655685"><ele>357.0</ele><time>2026-05-02T08:07:47.068Z</time></trkpt><trkpt lat="45.7355551" lon="8.9655055"><ele>357.0</ele><time>2026-05-02T08:09:42.065Z</time></trkpt><trkpt lat="45.735477" lon="8.9656061"><ele>357.0</ele><time>2026-05-02T08:10:07.811Z</time></trkpt><trkpt lat="45.7354934" lon="8.9656937"><ele>357.0</ele><time>2026-05-02T08:10:23.997Z</time></trkpt><trkpt lat="45.7355132" lon="8.9657833"><ele>357.0</ele><time>2026-05-02T08:10:53.996Z</time></trkpt><trkpt lat="45.7354886" lon="8.965867"><ele>355.42857142857144</ele><time>2026-05-02T08:11:10.03Z</time></trkpt><trkpt lat="45.7354733" lon="8.9659552"><ele>353.8571428571429</ele><time>2026-05-02T08:12:10.998Z</time></trkpt><trkpt lat="45.7354291" lon="8.9660216"><ele>352.2857142857143</ele><time>2026-05-02T08:12:18.033Z</time></trkpt><trkpt lat="45.7353728" lon="8.9660797"><ele>350.7142857142857</ele><time>2026-05-02T08:12:27.118Z</time></trkpt><trkpt lat="45.7353387" lon="8.9661685"><ele>349.14285714285717</ele><time>2026-05-02T08:12:34.9Z</time></trkpt><trkpt lat="45.7353202" lon="8.9662549"><ele>347.57142857142856</ele><time>2026-05-02T08:12:41.077Z</time></trkpt><trkpt lat="45.7353378" lon="8.9663428"><ele>346.0</ele><time>2026-05-02T08:12:48.116Z</time></trkpt><trkpt lat="45.7353752" lon="8.9664161"><ele>346.0</ele><time>2026-05-02T08:12:54.616Z</time></trkpt><trkpt lat="45.7354432" lon="8.9664404"><ele>346.0</ele><time>2026-05-02T08:13:01.02Z</time></trkpt><trkpt lat="45.7355131" lon="8.9664677"><ele>346.0</ele><time>2026-05-02T08:13:06.975Z</time></trkpt><trkpt lat="45.7355818" lon="8.966517"><ele>346.0</ele><time>2026-05-02T08:13:12.956Z</time></trkpt><trkpt lat="45.7356281" lon="8.9665897"><ele>346.0</ele><time>2026-05-02T08:13:18.476Z</time></trkpt><trkpt lat="45.7356659" lon="8.9666764"><ele>346.0</ele><time>2026-05-02T08:13:24.871Z</time></trkpt><trkpt lat="45.7357" lon="8.9667596"><ele>346.0</ele><time>2026-05-02T08:13:33.061Z</time></trkpt><trkpt lat="45.7357121" lon="8.9668513"><ele>344.8333333333333</ele><time>2026-05-02T08:13:42.978Z</time></trkpt><trkpt lat="45.7357484" lon="8.9669369"><ele>343.66666666666663</ele><time>2026-05-02T08:13:49.098Z</time></trkpt><trkpt lat="45.7357687" lon="8.967092"><ele>342.5</ele><time>2026-05-02T08:14:38.016Z</time></trkpt><trkpt lat="45.7357417" lon="8.9671792"><ele>341.3333333333333</ele><time>2026-05-02T08:14:47.998Z</time></trkpt><trkpt lat="45.7357348" lon="8.967277"><ele>340.1666666666667</ele><time>2026-05-02T08:14:53.959Z</time></trkpt><trkpt lat="45.735719" lon="8.967386"><ele>339.0</ele><time>2026-05-02T08:14:58.999Z</time></trkpt><trkpt lat="45.7357032" lon="8.9674782"><ele>338.2857142857143</ele><time>2026-05-02T08:15:04.251Z</time></trkpt><trkpt lat="45.7356717" lon="8.967577"><ele>337.5714285714286</ele><time>2026-05-02T08:15:09.635Z</time></trkpt><trkpt lat="45.7356587" lon="8.9676826"><ele>336.8571428571429</ele><time>2026-05-02T08:15:14.96Z</time></trkpt><trkpt lat="45.7356578" lon="8.967775"><ele>336.1428571428571</ele><time>2026-05-02T08:15:20.065Z</time></trkpt><trkpt lat="45.7356703" lon="8.967883"><ele>335.42857142857144</ele><time>2026-05-02T08:15:26.021Z</time></trkpt><trkpt lat="45.735647" lon="8.9679687"><ele>334.7142857142857</ele><time>2026-05-02T08:15:31.061Z</time></trkpt><trkpt lat="45.735628" lon="8.9680719"><ele>334.0</ele><time>2026-05-02T08:15:37.433Z</time></trkpt><trkpt lat="45.7356337" lon="8.9682134"><ele>334.0</ele><time>2026-05-02T08:15:54.194Z</time></trkpt><trkpt lat="45.7356083" lon="8.9683106"><ele>334.0</ele><time>2026-05-02T08:15:58.519Z</time></trkpt><trkpt lat="45.7355795" lon="8.9683941"><ele>334.0</ele><time>2026-05-02T08:16:02.812Z</time></trkpt><trkpt lat="45.735556" lon="8.9684844"><ele>334.0</ele><time>2026-05-02T08:16:08.056Z</time></trkpt><trkpt lat="45.7355312" lon="8.9685794"><ele>334.0</ele><time>2026-05-02T08:16:13Z</time></trkpt><trkpt lat="45.7355197" lon="8.968673"><ele>334.0</ele><time>2026-05-02T08:16:18.094Z</time></trkpt><trkpt lat="45.7355079" lon="8.968767"><ele>334.0</ele><time>2026-05-02T08:16:23.034Z</time></trkpt><trkpt lat="45.7354634" lon="8.9688572"><ele>334.1428571428571</ele><time>2026-05-02T08:16:28.155Z</time></trkpt><trkpt lat="45.7354529" lon="8.9689466"><ele>334.2857142857143</ele><time>2026-05-02T08:16:32.332Z</time></trkpt><trkpt lat="45.7354532" lon="8.969037"><ele>334.42857142857144</ele><time>2026-05-02T08:16:37.548Z</time></trkpt><trkpt lat="45.7354381" lon="8.9691349"><ele>334.57142857142856</ele><time>2026-05-02T08:16:42.814Z</time></trkpt><trkpt lat="45.7354287" lon="8.9692388"><ele>334.7142857142857</ele><time>2026-05-02T08:16:49.061Z</time></trkpt><trkpt lat="45.7354244" lon="8.9693435"><ele>334.85714285714283</ele><time>2026-05-02T08:16:54.975Z</time></trkpt><trkpt lat="45.7354326" lon="8.9694345"><ele>335.0</ele><time>2026-05-02T08:16:59.025Z</time></trkpt><trkpt lat="45.7354463" lon="8.9695416"><ele>335.2857142857143</ele><time>2026-05-02T08:17:04.065Z</time></trkpt><trkpt lat="45.7354685" lon="8.96964"><ele>335.57142857142856</ele><time>2026-05-02T08:17:09.105Z</time></trkpt><trkpt lat="45.7354815" lon="8.9697455"><ele>335.8571428571429</ele><time>2026-05-02T08:17:14.03Z</time></trkpt><trkpt lat="45.7355015" lon="8.9698325"><ele>336.1428571428571</ele><time>2026-05-02T08:17:18.982Z</time></trkpt><trkpt lat="45.7355004" lon="8.9699371"><ele>336.42857142857144</ele><time>2026-05-02T08:17:26.976Z</time></trkpt><trkpt lat="45.7355282" lon="8.9700194"><ele>336.7142857142857</ele><time>2026-05-02T08:17:34.074Z</time></trkpt><trkpt lat="45.7355403" lon="8.9701136"><ele>337.0</ele><time>2026-05-02T08:17:39.163Z</time></trkpt><trkpt lat="45.7355363" lon="8.9702148"><ele>338.5714285714286</ele><time>2026-05-02T08:17:44.456Z</time></trkpt><trkpt lat="45.7355486" lon="8.9703062"><ele>340.14285714285717</ele><time>2026-05-02T08:17:49.88Z</time></trkpt><trkpt lat="45.7355464" lon="8.9704023"><ele>341.7142857142857</ele><time>2026-05-02T08:17:55.034Z</time></trkpt><trkpt lat="45.7355357" lon="8.9705042"><ele>343.28571428571433</ele><time>2026-05-02T08:17:59.981Z</time></trkpt><trkpt lat="45.7355133" lon="8.9706018"><ele>344.8571428571429</ele><time>2026-05-02T08:18:04.94Z</time></trkpt><trkpt lat="45.7354947" lon="8.9706886"><ele>346.42857142857144</ele><time>2026-05-02T08:18:09.008Z</time></trkpt><trkpt lat="45.7354737" lon="8.9707898"><ele>348.0</ele><time>2026-05-02T08:18:14.253Z</time></trkpt><trkpt lat="45.7354777" lon="8.970898"><ele>349.1428571428571</ele><time>2026-05-02T08:18:20.876Z</time></trkpt><trkpt lat="45.7354664" lon="8.9710001"><ele>350.2857142857143</ele><time>2026-05-02T08:18:26.998Z</time></trkpt><trkpt lat="45.7354451" lon="8.9710996"><ele>351.42857142857144</ele><time>2026-05-02T08:18:32.999Z</time></trkpt><trkpt lat="45.7354324" lon="8.9711903"><ele>352.57142857142856</ele><time>2026-05-02T08:18:38.127Z</time></trkpt><trkpt lat="45.7354255" lon="8.9712857"><ele>353.7142857142857</ele><time>2026-05-02T08:18:43.353Z</time></trkpt><trkpt lat="45.7354633" lon="8.9712125"><ele>354.85714285714283</ele><time>2026-05-02T08:19:01.008Z</time></trkpt><trkpt lat="45.7354819" lon="8.9711161"><ele>356.0</ele><time>2026-05-02T08:19:12.003Z</time></trkpt><trkpt lat="45.7355186" lon="8.9709644"><ele>355.99999999999994</ele><time>2026-05-02T08:19:39.034Z</time></trkpt><trkpt lat="45.735557" lon="8.9708851"><ele>356.0</ele><time>2026-05-02T08:19:47.052Z</time></trkpt><trkpt lat="45.7356045" lon="8.9708052"><ele>356.0</ele><time>2026-05-02T08:19:54.091Z</time></trkpt><trkpt lat="45.7356652" lon="8.9707758"><ele>356.0</ele><time>2026-05-02T08:19:59.066Z</time></trkpt><trkpt lat="45.7357381" lon="8.9707614"><ele>356.0</ele><time>2026-05-02T08:20:05.944Z</time></trkpt><trkpt lat="45.735803" lon="8.9707424"><ele>355.99999999999994</ele><time>2026-05-02T08:20:11.089Z</time></trkpt><trkpt lat="45.7358675" lon="8.9707406"><ele>356.0</ele><time>2026-05-02T08:20:16.029Z</time></trkpt><trkpt lat="45.7359346" lon="8.9707447"><ele>356.1428571428571</ele><time>2026-05-02T08:20:21.069Z</time></trkpt><trkpt lat="45.7359997" lon="8.9707675"><ele>356.2857142857143</ele><time>2026-05-02T08:20:27.595Z</time></trkpt><trkpt lat="45.736069" lon="8.9707861"><ele>356.42857142857144</ele><time>2026-05-02T08:20:34.011Z</time></trkpt><trkpt lat="45.7361362" lon="8.9708061"><ele>356.57142857142856</ele><time>2026-05-02T08:20:39.531Z</time></trkpt><trkpt lat="45.7362042" lon="8.9708215"><ele>356.7142857142857</ele><time>2026-05-02T08:20:52.616Z</time></trkpt><trkpt lat="45.7362669" lon="8.9708596"><ele>356.85714285714283</ele><time>2026-05-02T08:20:56.865Z</time></trkpt><trkpt lat="45.7363349" lon="8.9708781"><ele>357.0</ele><time>2026-05-02T08:21:01.042Z</time></trkpt><trkpt lat="45.7364009" lon="8.9709127"><ele>357.0</ele><time>2026-05-02T08:21:06.236Z</time></trkpt><trkpt lat="45.7364722" lon="8.9709195"><ele>357.0</ele><time>2026-05-02T08:21:11.783Z</time></trkpt><trkpt lat="45.7365375" lon="8.9709296"><ele>357.0</ele><time>2026-05-02T08:21:19.035Z</time></trkpt><trkpt lat="45.7366056" lon="8.9709875"><ele>357.0</ele><time>2026-05-02T08:21:23.934Z</time></trkpt><trkpt lat="45.7366722" lon="8.9710063"><ele>357.0</ele><time>2026-05-02T08:21:30.999Z</time></trkpt><trkpt lat="45.736737" lon="8.9710336"><ele>357.0</ele><time>2026-05-02T08:21:36.099Z</time></trkpt><trkpt lat="45.7367919" lon="8.9710907"><ele>357.0</ele><time>2026-05-02T08:21:42.046Z</time></trkpt><trkpt lat="45.7368302" lon="8.9711724"><ele>357.0</ele><time>2026-05-02T08:21:48.035Z</time></trkpt><trkpt lat="45.7368614" lon="8.971252"><ele>357.0</ele><time>2026-05-02T08:21:52.96Z</time></trkpt><trkpt lat="45.7369017" lon="8.9713296"><ele>357.0</ele><time>2026-05-02T08:21:59.538Z</time></trkpt><trkpt lat="45.7369593" lon="8.9713781"><ele>357.0</ele><time>2026-05-02T08:22:06.098Z</time></trkpt><trkpt lat="45.737018" lon="8.9714195"><ele>357.0</ele><time>2026-05-02T08:22:12.98Z</time></trkpt><trkpt lat="45.7370695" lon="8.971494"><ele>357.0</ele><time>2026-05-02T08:22:20.072Z</time></trkpt><trkpt lat="45.7371005" lon="8.9715772"><ele>357.0</ele><time>2026-05-02T08:22:27.058Z</time></trkpt><trkpt lat="45.737145" lon="8.9716499"><ele>357.7142857142857</ele><time>2026-05-02T08:22:31.999Z</time></trkpt><trkpt lat="45.7371925" lon="8.9717216"><ele>358.42857142857144</ele><time>2026-05-02T08:22:38.524Z</time></trkpt><trkpt lat="45.7372309" lon="8.9717981"><ele>359.1428571428571</ele><time>2026-05-02T08:22:45.04Z</time></trkpt><trkpt lat="45.7372806" lon="8.9718602"><ele>359.8571428571429</ele><time>2026-05-02T08:22:52.225Z</time></trkpt><trkpt lat="45.7373276" lon="8.9719296"><ele>360.57142857142856</ele><time>2026-05-02T08:22:58.899Z</time></trkpt><trkpt lat="45.7373842" lon="8.9719815"><ele>361.2857142857143</ele><time>2026-05-02T08:23:04.053Z</time></trkpt><trkpt lat="45.7374454" lon="8.972035"><ele>362.0</ele><time>2026-05-02T08:23:10.009Z</time></trkpt><trkpt lat="45.737509" lon="8.972105"><ele>362.0</ele><time>2026-05-02T08:23:15.048Z</time></trkpt><trkpt lat="45.7375609" lon="8.9721808"><ele>362.0</ele><time>2026-05-02T08:23:20.088Z</time></trkpt><trkpt lat="45.7376375" lon="8.9721856"><ele>362.0</ele><time>2026-05-02T08:23:34.061Z</time></trkpt><trkpt lat="45.737701" lon="8.9722121"><ele>362.0</ele><time>2026-05-02T08:23:38.025Z</time></trkpt><trkpt lat="45.7377699" lon="8.9722485"><ele>362.0</ele><time>2026-05-02T08:23:43.914Z</time></trkpt><trkpt lat="45.7378442" lon="8.9722828"><ele>362.0</ele><time>2026-05-02T08:23:50.075Z</time></trkpt><trkpt lat="45.7379168" lon="8.9723068"><ele>362.0</ele><time>2026-05-02T08:23:55.973Z</time></trkpt><trkpt lat="45.7379813" lon="8.9723175"><ele>361.57142857142856</ele><time>2026-05-02T08:24:02.032Z</time></trkpt><trkpt lat="45.7380458" lon="8.9723454"><ele>361.1428571428571</ele><time>2026-05-02T08:24:08.999Z</time></trkpt><trkpt lat="45.7381209" lon="8.9723585"><ele>360.7142857142857</ele><time>2026-05-02T08:24:15.212Z</time></trkpt><trkpt lat="45.7381894" lon="8.9723885"><ele>360.2857142857143</ele><time>2026-05-02T08:24:20.793Z</time></trkpt><trkpt lat="45.7382469" lon="8.9724341"><ele>359.8571428571429</ele><time>2026-05-02T08:24:26.06Z</time></trkpt><trkpt lat="45.7382991" lon="8.9724882"><ele>359.42857142857144</ele><time>2026-05-02T08:24:30.999Z</time></trkpt><trkpt lat="45.7383725" lon="8.9725096"><ele>359.0</ele><time>2026-05-02T08:24:36.024Z</time></trkpt><trkpt lat="45.7384444" lon="8.9725222"><ele>359.0</ele><time>2026-05-02T08:24:41.998Z</time></trkpt><trkpt lat="45.7385079" lon="8.972544"><ele>359.0</ele><time>2026-05-02T08:24:47.931Z</time></trkpt><trkpt lat="45.7385728" lon="8.9725629"><ele>359.0</ele><time>2026-05-02T08:24:53.09Z</time></trkpt><trkpt lat="45.7386475" lon="8.9725708"><ele>359.0</ele><time>2026-05-02T08:24:59.046Z</time></trkpt><trkpt lat="45.738717" lon="8.9725773"><ele>359.0</ele><time>2026-05-02T08:25:03.999Z</time></trkpt><trkpt lat="45.7387801" lon="8.9725672"><ele>359.0</ele><time>2026-05-02T08:25:09.01Z</time></trkpt><trkpt lat="45.7388546" lon="8.972557"><ele>359.0</ele><time>2026-05-02T08:25:14.997Z</time></trkpt><trkpt lat="45.7389242" lon="8.9725351"><ele>359.0</ele><time>2026-05-02T08:25:20.098Z</time></trkpt><trkpt lat="45.7389918" lon="8.972506"><ele>359.0</ele><time>2026-05-02T08:25:24.93Z</time></trkpt><trkpt lat="45.7390535" lon="8.9724675"><ele>359.0</ele><time>2026-05-02T08:25:30.303Z</time></trkpt><trkpt lat="45.7390771" lon="8.9723654"><ele>359.0</ele><time>2026-05-02T08:25:36.78Z</time></trkpt><trkpt lat="45.7391623" lon="8.97235"><ele>359.0</ele><time>2026-05-02T08:25:37.529Z</time></trkpt><trkpt lat="45.739206" lon="8.9722819"><ele>359.0</ele><time>2026-05-02T08:25:41.999Z</time></trkpt><trkpt lat="45.7392217" lon="8.9721918"><ele>359.0</ele><time>2026-05-02T08:25:48.382Z</time></trkpt><trkpt lat="45.7392143" lon="8.9720964"><ele>359.0</ele><time>2026-05-02T08:25:59.997Z</time></trkpt><trkpt lat="45.7392611" lon="8.97201"><ele>359.0</ele><time>2026-05-02T08:26:07.833Z</time></trkpt><trkpt lat="45.7392938" lon="8.9719267"><ele>359.0</ele><time>2026-05-02T08:26:17.974Z</time></trkpt><trkpt lat="45.7393537" lon="8.9718879"><ele>359.0</ele><time>2026-05-02T08:26:25.062Z</time></trkpt><trkpt lat="45.7394167" lon="8.9718579"><ele>359.0</ele><time>2026-05-02T08:26:32.049Z</time></trkpt><trkpt lat="45.7394687" lon="8.9718043"><ele>359.0</ele><time>2026-05-02T08:26:39.477Z</time></trkpt><trkpt lat="45.7395381" lon="8.9717785"><ele>359.0</ele><time>2026-05-02T08:26:45.047Z</time></trkpt><trkpt lat="45.7396058" lon="8.971753"><ele>359.14285714285717</ele><time>2026-05-02T08:26:51.062Z</time></trkpt><trkpt lat="45.7396801" lon="8.971722"><ele>359.28571428571433</ele><time>2026-05-02T08:26:55.997Z</time></trkpt><trkpt lat="45.7397372" lon="8.9716798"><ele>359.42857142857144</ele><time>2026-05-02T08:27:01.998Z</time></trkpt><trkpt lat="45.7398" lon="8.9716695"><ele>359.57142857142856</ele><time>2026-05-02T08:27:05.998Z</time></trkpt><trkpt lat="45.7398629" lon="8.9716172"><ele>359.7142857142857</ele><time>2026-05-02T08:27:14.999Z</time></trkpt><trkpt lat="45.7399229" lon="8.971589"><ele>359.85714285714283</ele><time>2026-05-02T08:27:20.761Z</time></trkpt><trkpt lat="45.7400018" lon="8.9715569"><ele>360.0</ele><time>2026-05-02T08:27:25.998Z</time></trkpt><trkpt lat="45.7400666" lon="8.9715079"><ele>360.2857142857143</ele><time>2026-05-02T08:27:31.035Z</time></trkpt><trkpt lat="45.7401203" lon="8.971458"><ele>360.5714285714286</ele><time>2026-05-02T08:27:35.098Z</time></trkpt><trkpt lat="45.7401923" lon="8.971413"><ele>360.8571428571429</ele><time>2026-05-02T08:27:39.491Z</time></trkpt><trkpt lat="45.7402609" lon="8.9713567"><ele>361.1428571428571</ele><time>2026-05-02T08:27:43.973Z</time></trkpt><trkpt lat="45.7403226" lon="8.9713087"><ele>361.42857142857144</ele><time>2026-05-02T08:27:50.127Z</time></trkpt><trkpt lat="45.7403859" lon="8.9712929"><ele>361.7142857142857</ele><time>2026-05-02T08:27:56.114Z</time></trkpt><trkpt lat="45.7404534" lon="8.9712675"><ele>362.0</ele><time>2026-05-02T08:28:01.999Z</time></trkpt><trkpt lat="45.7405198" lon="8.9712595"><ele>362.0</ele><time>2026-05-02T08:28:07.347Z</time></trkpt><trkpt lat="45.7405867" lon="8.9712499"><ele>362.0</ele><time>2026-05-02T08:28:12.762Z</time></trkpt><trkpt lat="45.7406517" lon="8.9712436"><ele>362.0</ele><time>2026-05-02T08:28:16.999Z</time></trkpt><trkpt lat="45.7407174" lon="8.9712508"><ele>362.0</ele><time>2026-05-02T08:28:21.074Z</time></trkpt><trkpt lat="45.7407865" lon="8.9712385"><ele>362.0</ele><time>2026-05-02T08:28:24.999Z</time></trkpt><trkpt lat="45.7408555" lon="8.9712155"><ele>362.0</ele><time>2026-05-02T08:28:28.99Z</time></trkpt><trkpt lat="45.7409278" lon="8.9712035"><ele>362.0</ele><time>2026-05-02T08:28:33.313Z</time></trkpt><trkpt lat="45.740999" lon="8.9711946"><ele>361.85714285714283</ele><time>2026-05-02T08:28:38.776Z</time></trkpt><trkpt lat="45.7410655" lon="8.9711876"><ele>361.71428571428567</ele><time>2026-05-02T08:28:43.999Z</time></trkpt><trkpt lat="45.7411346" lon="8.9711786"><ele>361.57142857142856</ele><time>2026-05-02T08:28:49.033Z</time></trkpt><trkpt lat="45.7412087" lon="8.9711658"><ele>361.42857142857144</ele><time>2026-05-02T08:28:54.999Z</time></trkpt><trkpt lat="45.7412773" lon="8.9711568"><ele>361.2857142857143</ele><time>2026-05-02T08:28:58.998Z</time></trkpt><trkpt lat="45.74135" lon="8.9711509"><ele>361.14285714285717</ele><time>2026-05-02T08:29:04.036Z</time></trkpt><trkpt lat="45.7414182" lon="8.9711391"><ele>361.0</ele><time>2026-05-02T08:29:09.077Z</time></trkpt><trkpt lat="45.7414907" lon="8.9711506"><ele>361.0</ele><time>2026-05-02T08:29:15.033Z</time></trkpt><trkpt lat="45.7415563" lon="8.9711364"><ele>361.0</ele><time>2026-05-02T08:29:19.054Z</time></trkpt><trkpt lat="45.7416209" lon="8.9711192"><ele>361.0</ele><time>2026-05-02T08:29:22.936Z</time></trkpt><trkpt lat="45.7416866" lon="8.9711243"><ele>361.0</ele><time>2026-05-02T08:29:28.09Z</time></trkpt><trkpt lat="45.7417556" lon="8.971127"><ele>361.0</ele><time>2026-05-02T08:29:32.098Z</time></trkpt><trkpt lat="45.7418338" lon="8.9711358"><ele>361.0</ele><time>2026-05-02T08:29:37.457Z</time></trkpt><trkpt lat="45.7418943" lon="8.9711703"><ele>361.0</ele><time>2026-05-02T08:29:44.093Z</time></trkpt><trkpt lat="45.7419595" lon="8.9711719"><ele>361.0</ele><time>2026-05-02T08:29:47.945Z</time></trkpt><trkpt lat="45.7420238" lon="8.971186"><ele>361.0</ele><time>2026-05-02T08:29:53.058Z</time></trkpt><trkpt lat="45.7420882" lon="8.9712239"><ele>361.0</ele><time>2026-05-02T08:29:59.249Z</time></trkpt><trkpt lat="45.7421505" lon="8.9712849"><ele>361.0</ele><time>2026-05-02T08:30:06.733Z</time></trkpt><trkpt lat="45.742223" lon="8.9713016"><ele>361.0</ele><time>2026-05-02T08:30:12.093Z</time></trkpt><trkpt lat="45.7422989" lon="8.9713107"><ele>361.0</ele><time>2026-05-02T08:30:17Z</time></trkpt><trkpt lat="45.7423652" lon="8.9713373"><ele>361.0</ele><time>2026-05-02T08:30:22.036Z</time></trkpt><trkpt lat="45.7424357" lon="8.9713313"><ele>361.0</ele><time>2026-05-02T08:30:27.075Z</time></trkpt><trkpt lat="45.7425043" lon="8.971319"><ele>361.0</ele><time>2026-05-02T08:30:30.994Z</time></trkpt><trkpt lat="45.7425689" lon="8.9713124"><ele>361.0</ele><time>2026-05-02T08:30:36.009Z</time></trkpt><trkpt lat="45.7426387" lon="8.9712451"><ele>361.0</ele><time>2026-05-02T08:30:41.293Z</time></trkpt><trkpt lat="45.7427015" lon="8.9711895"><ele>361.0</ele><time>2026-05-02T08:30:45.675Z</time></trkpt><trkpt lat="45.7427317" lon="8.9710963"><ele>361.0</ele><time>2026-05-02T08:30:49.999Z</time></trkpt><trkpt lat="45.7427253" lon="8.9710005"><ele>361.0</ele><time>2026-05-02T08:30:54.92Z</time></trkpt><trkpt lat="45.7426629" lon="8.9709534"><ele>361.0</ele><time>2026-05-02T08:31:11.998Z</time></trkpt><trkpt lat="45.7426588" lon="8.970863"><ele>361.0</ele><time>2026-05-02T08:31:22.999Z</time></trkpt><trkpt lat="45.7426898" lon="8.9707737"><ele>361.0</ele><time>2026-05-02T08:31:39.115Z</time></trkpt><trkpt lat="45.7427483" lon="8.9706533"><ele>361.0</ele><time>2026-05-02T08:31:58.017Z</time></trkpt><trkpt lat="45.7428004" lon="8.970588"><ele>361.0</ele><time>2026-05-02T08:32:05.1Z</time></trkpt><trkpt lat="45.7429309" lon="8.9705777"><ele>361.0</ele><time>2026-05-02T08:33:26.095Z</time></trkpt><trkpt lat="45.742953" lon="8.9706637"><ele>360.5714285714286</ele><time>2026-05-02T08:33:33.02Z</time></trkpt><trkpt lat="45.7429538" lon="8.9707559"><ele>360.1428571428571</ele><time>2026-05-02T08:33:42.257Z</time></trkpt><trkpt lat="45.7429893" lon="8.9708315"><ele>359.7142857142857</ele><time>2026-05-02T08:33:49.003Z</time></trkpt><trkpt lat="45.7430472" lon="8.9708674"><ele>359.28571428571433</ele><time>2026-05-02T08:34:03.091Z</time></trkpt><trkpt lat="45.7430675" lon="8.970778"><ele>358.8571428571429</ele><time>2026-05-02T08:34:09.999Z</time></trkpt><trkpt lat="45.7430903" lon="8.9706724"><ele>358.42857142857144</ele><time>2026-05-02T08:34:16.115Z</time></trkpt><trkpt lat="45.7431059" lon="8.9705769"><ele>358.0</ele><time>2026-05-02T08:34:25.081Z</time></trkpt><trkpt lat="45.7431494" lon="8.9705071"><ele>357.42857142857144</ele><time>2026-05-02T08:34:30.054Z</time></trkpt><trkpt lat="45.743203" lon="8.9704345"><ele>356.8571428571429</ele><time>2026-05-02T08:34:35.047Z</time></trkpt><trkpt lat="45.7432647" lon="8.9703982"><ele>356.28571428571433</ele><time>2026-05-02T08:34:41.002Z</time></trkpt><trkpt lat="45.7433362" lon="8.9703975"><ele>355.7142857142857</ele><time>2026-05-02T08:34:47.073Z</time></trkpt><trkpt lat="45.7434097" lon="8.9703993"><ele>355.1428571428571</ele><time>2026-05-02T08:34:52Z</time></trkpt><trkpt lat="45.743484" lon="8.9704007"><ele>354.5714285714286</ele><time>2026-05-02T08:34:57.038Z</time></trkpt><trkpt lat="45.7435584" lon="8.9704062"><ele>354.0</ele><time>2026-05-02T08:35:03Z</time></trkpt><trkpt lat="45.7436349" lon="8.9703926"><ele>354.0</ele><time>2026-05-02T08:35:09.123Z</time></trkpt><trkpt lat="45.7437106" lon="8.9703898"><ele>354.0</ele><time>2026-05-02T08:35:14.595Z</time></trkpt><trkpt lat="45.7437833" lon="8.9703761"><ele>354.0</ele><time>2026-05-02T08:35:20.034Z</time></trkpt><trkpt lat="45.7438559" lon="8.9703646"><ele>354.0</ele><time>2026-05-02T08:35:25.034Z</time></trkpt><trkpt lat="45.7439203" lon="8.9703566"><ele>354.0</ele><time>2026-05-02T08:35:30.024Z</time></trkpt><trkpt lat="45.7439884" lon="8.9703324"><ele>354.0</ele><time>2026-05-02T08:35:35.064Z</time></trkpt><trkpt lat="45.7440575" lon="8.970316"><ele>354.0</ele><time>2026-05-02T08:35:41.349Z</time></trkpt><trkpt lat="45.7441194" lon="8.9702981"><ele>354.0</ele><time>2026-05-02T08:35:45.654Z</time></trkpt><trkpt lat="45.7441874" lon="8.9702785"><ele>354.0</ele><time>2026-05-02T08:35:50.08Z</time></trkpt><trkpt lat="45.7442563" lon="8.9702577"><ele>354.0</ele><time>2026-05-02T08:35:54.997Z</time></trkpt><trkpt lat="45.7443291" lon="8.9702425"><ele>354.0</ele><time>2026-05-02T08:36:00.033Z</time></trkpt><trkpt lat="45.7444063" lon="8.9702355"><ele>354.0</ele><time>2026-05-02T08:36:05.999Z</time></trkpt><trkpt lat="45.7444685" lon="8.9702505"><ele>354.0</ele><time>2026-05-02T08:36:11.028Z</time></trkpt><trkpt lat="45.7445421" lon="8.9702595"><ele>354.0</ele><time>2026-05-02T08:36:16.068Z</time></trkpt><trkpt lat="45.7446191" lon="8.970265"><ele>354.8571428571429</ele><time>2026-05-02T08:36:20.999Z</time></trkpt><trkpt lat="45.7446853" lon="8.9702715"><ele>355.71428571428567</ele><time>2026-05-02T08:36:26.033Z</time></trkpt><trkpt lat="45.7447495" lon="8.9703051"><ele>356.57142857142856</ele><time>2026-05-02T08:36:31.047Z</time></trkpt><trkpt lat="45.7448" lon="8.9703784"><ele>357.42857142857144</ele><time>2026-05-02T08:36:35.999Z</time></trkpt><trkpt lat="45.7448506" lon="8.9704425"><ele>358.28571428571433</ele><time>2026-05-02T08:36:41.037Z</time></trkpt><trkpt lat="45.7448924" lon="8.9705119"><ele>359.1428571428571</ele><time>2026-05-02T08:36:46.027Z</time></trkpt><trkpt lat="45.7449403" lon="8.9705797"><ele>360.0</ele><time>2026-05-02T08:36:50.195Z</time></trkpt><trkpt lat="45.7449903" lon="8.9706437"><ele>360.0</ele><time>2026-05-02T08:36:54.398Z</time></trkpt><trkpt lat="45.7450577" lon="8.97069"><ele>360.0</ele><time>2026-05-02T08:37:01.999Z</time></trkpt><trkpt lat="45.7451203" lon="8.9706753"><ele>360.0</ele><time>2026-05-02T08:37:07.998Z</time></trkpt><trkpt lat="45.7451897" lon="8.9706524"><ele>360.0</ele><time>2026-05-02T08:37:15.055Z</time></trkpt><trkpt lat="45.7452564" lon="8.9706369"><ele>360.0</ele><time>2026-05-02T08:37:22.042Z</time></trkpt><trkpt lat="45.7453202" lon="8.9706264"><ele>360.0</ele><time>2026-05-02T08:37:29.029Z</time></trkpt><trkpt lat="45.7453849" lon="8.9705994"><ele>360.0</ele><time>2026-05-02T08:37:34.998Z</time></trkpt><trkpt lat="45.7454498" lon="8.9705732"><ele>360.57142857142856</ele><time>2026-05-02T08:37:39.044Z</time></trkpt><trkpt lat="45.7455135" lon="8.9705547"><ele>361.14285714285717</ele><time>2026-05-02T08:37:43.003Z</time></trkpt><trkpt lat="45.7455826" lon="8.9705298"><ele>361.7142857142857</ele><time>2026-05-02T08:37:48.072Z</time></trkpt><trkpt lat="45.7456466" lon="8.9705"><ele>362.2857142857143</ele><time>2026-05-02T08:37:53.082Z</time></trkpt><trkpt lat="45.7457104" lon="8.9704485"><ele>362.8571428571429</ele><time>2026-05-02T08:37:58.324Z</time></trkpt><trkpt lat="45.7457835" lon="8.970414"><ele>363.42857142857144</ele><time>2026-05-02T08:38:03.545Z</time></trkpt><trkpt lat="45.7458512" lon="8.9703752"><ele>364.0</ele><time>2026-05-02T08:38:08.921Z</time></trkpt><trkpt lat="45.7459142" lon="8.970336"><ele>364.0</ele><time>2026-05-02T08:38:14.043Z</time></trkpt><trkpt lat="45.7459737" lon="8.9702911"><ele>364.0</ele><time>2026-05-02T08:38:19.083Z</time></trkpt><trkpt lat="45.7460362" lon="8.9702546"><ele>364.0</ele><time>2026-05-02T08:38:26.069Z</time></trkpt><trkpt lat="45.7461424" lon="8.9702345"><ele>364.0</ele><time>2026-05-02T08:39:03.001Z</time></trkpt><trkpt lat="45.7461952" lon="8.9701782"><ele>364.0</ele><time>2026-05-02T08:39:07.999Z</time></trkpt><trkpt lat="45.746262" lon="8.9701302"><ele>364.0</ele><time>2026-05-02T08:39:13.03Z</time></trkpt><trkpt lat="45.7463334" lon="8.9700951"><ele>364.14285714285717</ele><time>2026-05-02T08:39:19.099Z</time></trkpt><trkpt lat="45.7463998" lon="8.970086"><ele>364.2857142857143</ele><time>2026-05-02T08:39:26.088Z</time></trkpt><trkpt lat="45.7464663" lon="8.9700639"><ele>364.42857142857144</ele><time>2026-05-02T08:39:32.044Z</time></trkpt><trkpt lat="45.7465381" lon="8.9700753"><ele>364.57142857142856</ele><time>2026-05-02T08:39:50.026Z</time></trkpt><trkpt lat="45.7466018" lon="8.9700716"><ele>364.7142857142857</ele><time>2026-05-02T08:39:58.037Z</time></trkpt><trkpt lat="45.746668" lon="8.9700518"><ele>364.8571428571429</ele><time>2026-05-02T08:40:04Z</time></trkpt><trkpt lat="45.7467433" lon="8.9700356"><ele>365.0</ele><time>2026-05-02T08:40:10.265Z</time></trkpt><trkpt lat="45.7468101" lon="8.9700044"><ele>366.28571428571433</ele><time>2026-05-02T08:40:16.025Z</time></trkpt><trkpt lat="45.746881" lon="8.9700281"><ele>367.57142857142856</ele><time>2026-05-02T08:40:20.004Z</time></trkpt><trkpt lat="45.746951" lon="8.9700042"><ele>368.8571428571429</ele><time>2026-05-02T08:40:24.09Z</time></trkpt><trkpt lat="45.7470142" lon="8.9699627"><ele>370.14285714285717</ele><time>2026-05-02T08:40:29.031Z</time></trkpt><trkpt lat="45.7470854" lon="8.9699412"><ele>371.42857142857144</ele><time>2026-05-02T08:40:34.009Z</time></trkpt><trkpt lat="45.7471549" lon="8.9699509"><ele>372.7142857142857</ele><time>2026-05-02T08:40:39.049Z</time></trkpt><trkpt lat="45.7471994" lon="8.9698769"><ele>374.0</ele><time>2026-05-02T08:40:45.005Z</time></trkpt><trkpt lat="45.7472413" lon="8.9697977"><ele>374.0</ele><time>2026-05-02T08:40:53.956Z</time></trkpt><trkpt lat="45.747272" lon="8.9697171"><ele>374.0</ele><time>2026-05-02T08:41:00.934Z</time></trkpt><trkpt lat="45.7473343" lon="8.9696702"><ele>374.0</ele><time>2026-05-02T08:41:09.78Z</time></trkpt><trkpt lat="45.7474008" lon="8.96967"><ele>374.0</ele><time>2026-05-02T08:41:16.045Z</time></trkpt><trkpt lat="45.7474729" lon="8.9696431"><ele>374.0</ele><time>2026-05-02T08:41:20.997Z</time></trkpt><trkpt lat="45.7475339" lon="8.9696114"><ele>374.0</ele><time>2026-05-02T08:41:26.099Z</time></trkpt><trkpt lat="45.7475965" lon="8.9695812"><ele>374.0</ele><time>2026-05-02T08:41:32.027Z</time></trkpt><trkpt lat="45.7476555" lon="8.9695399"><ele>375.85714285714283</ele><time>2026-05-02T08:41:36.917Z</time></trkpt><trkpt lat="45.747724" lon="8.9694966"><ele>377.7142857142857</ele><time>2026-05-02T08:41:42.046Z</time></trkpt><trkpt lat="45.7477848" lon="8.9694546"><ele>379.57142857142856</ele><time>2026-05-02T08:41:46.055Z</time></trkpt><trkpt lat="45.7478501" lon="8.9694408"><ele>381.42857142857144</ele><time>2026-05-02T08:41:51.437Z</time></trkpt><trkpt lat="45.7479246" lon="8.9694474"><ele>383.28571428571433</ele><time>2026-05-02T08:41:56.875Z</time></trkpt><trkpt lat="45.7479962" lon="8.9694233"><ele>385.14285714285717</ele><time>2026-05-02T08:42:05.069Z</time></trkpt><trkpt lat="45.7480721" lon="8.9694294"><ele>387.0</ele><time>2026-05-02T08:42:11.025Z</time></trkpt><trkpt lat="45.7481319" lon="8.9693964"><ele>387.0</ele><time>2026-05-02T08:42:18.012Z</time></trkpt><trkpt lat="45.7481964" lon="8.9693724"><ele>387.0</ele><time>2026-05-02T08:42:24.999Z</time></trkpt><trkpt lat="45.7482633" lon="8.9693609"><ele>387.0</ele><time>2026-05-02T08:42:30.998Z</time></trkpt><trkpt lat="45.7483334" lon="8.969332"><ele>387.0</ele><time>2026-05-02T08:42:35.973Z</time></trkpt><trkpt lat="45.7483976" lon="8.9692893"><ele>387.0</ele><time>2026-05-02T08:42:41.237Z</time></trkpt><trkpt lat="45.7484543" lon="8.9692275"><ele>387.0</ele><time>2026-05-02T08:42:45.51Z</time></trkpt><trkpt lat="45.7485108" lon="8.969157"><ele>387.0</ele><time>2026-05-02T08:42:50.978Z</time></trkpt><trkpt lat="45.7485815" lon="8.9691266"><ele>385.14285714285717</ele><time>2026-05-02T08:42:56.998Z</time></trkpt><trkpt lat="45.7486552" lon="8.9691078"><ele>383.28571428571433</ele><time>2026-05-02T08:43:01.998Z</time></trkpt><trkpt lat="45.7487154" lon="8.9690712"><ele>381.42857142857144</ele><time>2026-05-02T08:43:06.992Z</time></trkpt><trkpt lat="45.7487784" lon="8.9690253"><ele>379.57142857142856</ele><time>2026-05-02T08:43:12.302Z</time></trkpt><trkpt lat="45.7488448" lon="8.9689827"><ele>377.7142857142857</ele><time>2026-05-02T08:43:18.607Z</time></trkpt><trkpt lat="45.7489011" lon="8.9689331"><ele>375.85714285714283</ele><time>2026-05-02T08:43:23.998Z</time></trkpt><trkpt lat="45.7489723" lon="8.968895"><ele>374.0</ele><time>2026-05-02T08:43:30.997Z</time></trkpt><trkpt lat="45.7490362" lon="8.9688523"><ele>374.0</ele><time>2026-05-02T08:43:36.017Z</time></trkpt><trkpt lat="45.7491064" lon="8.9688193"><ele>374.0</ele><time>2026-05-02T08:43:42.034Z</time></trkpt><trkpt lat="45.7491691" lon="8.9687738"><ele>374.0</ele><time>2026-05-02T08:43:48.998Z</time></trkpt><trkpt lat="45.7492171" lon="8.9687034"><ele>374.0</ele><time>2026-05-02T08:43:55.027Z</time></trkpt><trkpt lat="45.7492636" lon="8.9686367"><ele>374.0</ele><time>2026-05-02T08:44:00.997Z</time></trkpt><trkpt lat="45.7493208" lon="8.9685781"><ele>374.0</ele><time>2026-05-02T08:44:07.034Z</time></trkpt><trkpt lat="45.7493645" lon="8.968512"><ele>374.0</ele><time>2026-05-02T08:44:13.031Z</time></trkpt><trkpt lat="45.7494091" lon="8.9684466"><ele>373.5</ele><time>2026-05-02T08:44:19.022Z</time></trkpt><trkpt lat="45.7494539" lon="8.9683829"><ele>373.0</ele><time>2026-05-02T08:44:24.006Z</time></trkpt><trkpt lat="45.7495123" lon="8.9682551"><ele>372.5</ele><time>2026-05-02T08:44:43.018Z</time></trkpt><trkpt lat="45.7495079" lon="8.9681651"><ele>372.0</ele><time>2026-05-02T08:44:52.068Z</time></trkpt><trkpt lat="45.7495089" lon="8.968073"><ele>371.5</ele><time>2026-05-02T08:45:03.063Z</time></trkpt><trkpt lat="45.749576" lon="8.9680469"><ele>371.0</ele><time>2026-05-02T08:45:17.037Z</time></trkpt><trkpt lat="45.7496614" lon="8.96803"><ele>371.0</ele><time>2026-05-02T08:45:32.042Z</time></trkpt><trkpt lat="45.7497267" lon="8.9680544"><ele>371.0</ele><time>2026-05-02T08:45:37.996Z</time></trkpt><trkpt lat="45.7497893" lon="8.9681091"><ele>371.0</ele><time>2026-05-02T08:45:44.005Z</time></trkpt><trkpt lat="45.7498474" lon="8.9681623"><ele>371.0</ele><time>2026-05-02T08:45:49.006Z</time></trkpt><trkpt lat="45.749889" lon="8.968242"><ele>371.0</ele><time>2026-05-02T08:45:55.005Z</time></trkpt><trkpt lat="45.7499486" lon="8.9682916"><ele>371.0</ele><time>2026-05-02T08:46:03.08Z</time></trkpt><trkpt lat="45.7500116" lon="8.9683349"><ele>371.0</ele><time>2026-05-02T08:46:09.037Z</time></trkpt><trkpt lat="45.7500753" lon="8.9683901"><ele>371.0</ele><time>2026-05-02T08:46:14.999Z</time></trkpt><trkpt lat="45.7501649" lon="8.9684211"><ele>371.0</ele><time>2026-05-02T08:46:25.073Z</time></trkpt><trkpt lat="45.7502214" lon="8.9684806"><ele>371.0</ele><time>2026-05-02T08:46:30.011Z</time></trkpt><trkpt lat="45.7502591" lon="8.968554"><ele>371.0</ele><time>2026-05-02T08:46:34.921Z</time></trkpt><trkpt lat="45.7503107" lon="8.9686288"><ele>371.0</ele><time>2026-05-02T08:46:46.033Z</time></trkpt><trkpt lat="45.7503654" lon="8.968683"><ele>371.0</ele><time>2026-05-02T08:46:51.912Z</time></trkpt><trkpt lat="45.7504122" lon="8.9687643"><ele>371.0</ele><time>2026-05-02T08:46:58.015Z</time></trkpt><trkpt lat="45.7504671" lon="8.9688151"><ele>371.0</ele><time>2026-05-02T08:47:06.077Z</time></trkpt><trkpt lat="45.7505173" lon="8.9688822"><ele>371.0</ele><time>2026-05-02T08:47:12.032Z</time></trkpt><trkpt lat="45.750573" lon="8.9689503"><ele>371.0</ele><time>2026-05-02T08:47:17.073Z</time></trkpt><trkpt lat="45.7506283" lon="8.9690018"><ele>371.0</ele><time>2026-05-02T08:47:23.997Z</time></trkpt><trkpt lat="45.7506977" lon="8.9690283"><ele>371.0</ele><time>2026-05-02T08:47:40.438Z</time></trkpt><trkpt lat="45.7506758" lon="8.9691156"><ele>371.0</ele><time>2026-05-02T08:47:52.007Z</time></trkpt><trkpt lat="45.7507046" lon="8.9692011"><ele>371.0</ele><time>2026-05-02T08:48:04.344Z</time></trkpt><trkpt lat="45.7507612" lon="8.9693011"><ele>371.0</ele><time>2026-05-02T08:48:16.119Z</time></trkpt><trkpt lat="45.7507926" lon="8.9693823"><ele>371.0</ele><time>2026-05-02T08:48:19.301Z</time></trkpt><trkpt lat="45.7508402" lon="8.9694749"><ele>371.0</ele><time>2026-05-02T08:48:24.691Z</time></trkpt><trkpt lat="45.7508897" lon="8.9695356"><ele>371.0</ele><time>2026-05-02T08:48:30.999Z</time></trkpt><trkpt lat="45.7509294" lon="8.9696271"><ele>371.0</ele><time>2026-05-02T08:48:36.036Z</time></trkpt><trkpt lat="45.7509841" lon="8.9696827"><ele>371.0</ele><time>2026-05-02T08:48:41.336Z</time></trkpt><trkpt lat="45.75105" lon="8.9697001"><ele>371.0</ele><time>2026-05-02T08:48:46.691Z</time></trkpt><trkpt lat="45.7511184" lon="8.9697018"><ele>370.1666666666667</ele><time>2026-05-02T08:48:53.998Z</time></trkpt><trkpt lat="45.7511892" lon="8.9696966"><ele>369.33333333333337</ele><time>2026-05-02T08:49:01.073Z</time></trkpt><trkpt lat="45.7512644" lon="8.9696724"><ele>368.5</ele><time>2026-05-02T08:49:05.999Z</time></trkpt><trkpt lat="45.7513288" lon="8.9696561"><ele>367.6666666666667</ele><time>2026-05-02T08:49:10.007Z</time></trkpt><trkpt lat="45.7513892" lon="8.9696239"><ele>366.8333333333333</ele><time>2026-05-02T08:49:14.095Z</time></trkpt><trkpt lat="45.7515052" lon="8.9695612"><ele>366.0</ele><time>2026-05-02T08:49:34.059Z</time></trkpt><trkpt lat="45.7515659" lon="8.9695217"><ele>366.0</ele><time>2026-05-02T08:49:42.593Z</time></trkpt><trkpt lat="45.7516292" lon="8.9695025"><ele>366.0</ele><time>2026-05-02T08:49:47.002Z</time></trkpt><trkpt lat="45.7516818" lon="8.969437"><ele>366.0</ele><time>2026-05-02T08:49:56.049Z</time></trkpt><trkpt lat="45.7517317" lon="8.9693667"><ele>366.0</ele><time>2026-05-02T08:50:06.014Z</time></trkpt><trkpt lat="45.7517982" lon="8.9693411"><ele>366.0</ele><time>2026-05-02T08:50:14.033Z</time></trkpt><trkpt lat="45.751845" lon="8.9692805"><ele>366.0</ele><time>2026-05-02T08:50:23.04Z</time></trkpt><trkpt lat="45.7519037" lon="8.9692209"><ele>366.0</ele><time>2026-05-02T08:50:29.999Z</time></trkpt><trkpt lat="45.7519588" lon="8.9691728"><ele>366.0</ele><time>2026-05-02T08:50:34.998Z</time></trkpt><trkpt lat="45.752025" lon="8.9690826"><ele>366.0</ele><time>2026-05-02T08:50:41.998Z</time></trkpt><trkpt lat="45.7520687" lon="8.9690146"><ele>366.0</ele><time>2026-05-02T08:50:45.072Z</time></trkpt><trkpt lat="45.7521332" lon="8.9690034"><ele>366.0</ele><time>2026-05-02T08:50:53.09Z</time></trkpt><trkpt lat="45.7521598" lon="8.9690969"><ele>366.0</ele><time>2026-05-02T08:51:14.419Z</time></trkpt><trkpt lat="45.7521961" lon="8.9692189"><ele>366.0</ele><time>2026-05-02T08:51:27.981Z</time></trkpt><trkpt lat="45.7522499" lon="8.9692744"><ele>365.5</ele><time>2026-05-02T08:51:31.001Z</time></trkpt><trkpt lat="45.7523152" lon="8.9693025"><ele>365.0</ele><time>2026-05-02T08:51:35.948Z</time></trkpt><trkpt lat="45.7523758" lon="8.969346"><ele>364.5</ele><time>2026-05-02T08:51:40.999Z</time></trkpt><trkpt lat="45.752429" lon="8.9694046"><ele>364.0</ele><time>2026-05-02T08:51:46.005Z</time></trkpt><trkpt lat="45.7525001" lon="8.9694303"><ele>363.5</ele><time>2026-05-02T08:51:52.076Z</time></trkpt><trkpt lat="45.7526234" lon="8.9694673"><ele>363.0</ele><time>2026-05-02T08:52:58.8Z</time></trkpt><trkpt lat="45.7525371" lon="8.9694444"><ele>362.99999999999994</ele><time>2026-05-02T08:53:25.997Z</time></trkpt><trkpt lat="45.7524822" lon="8.9693976"><ele>363.0</ele><time>2026-05-02T08:53:31.034Z</time></trkpt><trkpt lat="45.7524309" lon="8.9693351"><ele>363.0</ele><time>2026-05-02T08:53:43.06Z</time></trkpt><trkpt lat="45.7523786" lon="8.9692614"><ele>363.0</ele><time>2026-05-02T08:53:50.047Z</time></trkpt><trkpt lat="45.7523619" lon="8.9691523"><ele>363.0</ele><time>2026-05-02T08:53:55.26Z</time></trkpt><trkpt lat="45.7523159" lon="8.9690712"><ele>362.99999999999994</ele><time>2026-05-02T08:54:02.054Z</time></trkpt><trkpt lat="45.7522528" lon="8.9690542"><ele>363.0</ele><time>2026-05-02T08:54:06.991Z</time></trkpt><trkpt lat="45.752178" lon="8.9690654"><ele>363.5</ele><time>2026-05-02T08:54:11.213Z</time></trkpt><trkpt lat="45.7521025" lon="8.9690892"><ele>364.0</ele><time>2026-05-02T08:54:15.574Z</time></trkpt><trkpt lat="45.7520459" lon="8.9691302"><ele>364.5</ele><time>2026-05-02T08:54:20.999Z</time></trkpt><trkpt lat="45.7519762" lon="8.9690873"><ele>365.0</ele><time>2026-05-02T08:54:22.002Z</time></trkpt><trkpt lat="45.7520955" lon="8.9689819"><ele>365.5</ele><time>2026-05-02T08:55:15.97Z</time></trkpt><trkpt lat="45.7521144" lon="8.9688946"><ele>366.0</ele><time>2026-05-02T08:55:26.099Z</time></trkpt><trkpt lat="45.7521503" lon="8.9688163"><ele>366.0</ele><time>2026-05-02T08:55:31.114Z</time></trkpt><trkpt lat="45.7521753" lon="8.9687258"><ele>366.0</ele><time>2026-05-02T08:55:43.322Z</time></trkpt><trkpt lat="45.7522211" lon="8.9686617"><ele>366.0</ele><time>2026-05-02T08:55:49.851Z</time></trkpt><trkpt lat="45.752276" lon="8.9686156"><ele>366.0</ele><time>2026-05-02T08:55:55.004Z</time></trkpt><trkpt lat="45.7523479" lon="8.9685815"><ele>366.0</ele><time>2026-05-02T08:56:00.002Z</time></trkpt><trkpt lat="45.7524093" lon="8.9685422"><ele>366.0</ele><time>2026-05-02T08:56:03.996Z</time></trkpt><trkpt lat="45.7524661" lon="8.968499"><ele>366.0</ele><time>2026-05-02T08:56:08.015Z</time></trkpt><trkpt lat="45.7525375" lon="8.9684453"><ele>366.0</ele><time>2026-05-02T08:56:12.311Z</time></trkpt><trkpt lat="45.7526002" lon="8.9683929"><ele>366.0</ele><time>2026-05-02T08:56:16.722Z</time></trkpt><trkpt lat="45.7526616" lon="8.9683547"><ele>366.0</ele><time>2026-05-02T08:56:20.844Z</time></trkpt><trkpt lat="45.7527226" lon="8.9683154"><ele>366.0</ele><time>2026-05-02T08:56:26.043Z</time></trkpt><trkpt lat="45.7527901" lon="8.968288"><ele>366.0</ele><time>2026-05-02T08:56:32.316Z</time></trkpt><trkpt lat="45.7528504" lon="8.9682536"><ele>366.0</ele><time>2026-05-02T08:56:37.734Z</time></trkpt><trkpt lat="45.7529138" lon="8.9682099"><ele>366.0</ele><time>2026-05-02T08:56:43.017Z</time></trkpt><trkpt lat="45.7529715" lon="8.9681555"><ele>366.0</ele><time>2026-05-02T08:56:48.034Z</time></trkpt><trkpt lat="45.7530286" lon="8.9680967"><ele>366.0</ele><time>2026-05-02T08:56:53.008Z</time></trkpt><trkpt lat="45.7530755" lon="8.9680191"><ele>366.0</ele><time>2026-05-02T08:56:57.998Z</time></trkpt><trkpt lat="45.7531181" lon="8.9679432"><ele>366.0</ele><time>2026-05-02T08:57:03.055Z</time></trkpt><trkpt lat="45.7531804" lon="8.9678907"><ele>366.0</ele><time>2026-05-02T08:57:09.938Z</time></trkpt><trkpt lat="45.7532331" lon="8.9678312"><ele>366.0</ele><time>2026-05-02T08:57:15.261Z</time></trkpt><trkpt lat="45.7532893" lon="8.9677657"><ele>366.0</ele><time>2026-05-02T08:57:20.735Z</time></trkpt><trkpt lat="45.7533549" lon="8.9677125"><ele>366.0</ele><time>2026-05-02T08:57:26.998Z</time></trkpt><trkpt lat="45.7534221" lon="8.9676712"><ele>366.0</ele><time>2026-05-02T08:57:31.956Z</time></trkpt><trkpt lat="45.753485" lon="8.9676307"><ele>366.0</ele><time>2026-05-02T08:57:37.055Z</time></trkpt><trkpt lat="45.7535453" lon="8.9675886"><ele>366.0</ele><time>2026-05-02T08:57:44.114Z</time></trkpt><trkpt lat="45.7536064" lon="8.9675468"><ele>366.0</ele><time>2026-05-02T08:57:50.84Z</time></trkpt><trkpt lat="45.7536746" lon="8.9675159"><ele>366.0</ele><time>2026-05-02T08:57:55.021Z</time></trkpt><trkpt lat="45.7537352" lon="8.967476"><ele>366.0</ele><time>2026-05-02T08:57:58.914Z</time></trkpt><trkpt lat="45.7538031" lon="8.9674203"><ele>366.8333333333333</ele><time>2026-05-02T08:58:03.054Z</time></trkpt><trkpt lat="45.7538665" lon="8.9673877"><ele>367.6666666666667</ele><time>2026-05-02T08:58:10.04Z</time></trkpt><trkpt lat="45.753926" lon="8.967353"><ele>368.5</ele><time>2026-05-02T08:58:15.997Z</time></trkpt><trkpt lat="45.7539973" lon="8.967329"><ele>369.33333333333337</ele><time>2026-05-02T08:58:23.095Z</time></trkpt><trkpt lat="45.754062" lon="8.9673018"><ele>370.1666666666667</ele><time>2026-05-02T08:58:29.345Z</time></trkpt><trkpt lat="45.7541124" lon="8.9672012"><ele>371.0</ele><time>2026-05-02T08:58:47.035Z</time></trkpt><trkpt lat="45.7541731" lon="8.9670689"><ele>371.0</ele><time>2026-05-02T08:59:44.998Z</time></trkpt><trkpt lat="45.7542153" lon="8.9669994"><ele>371.0</ele><time>2026-05-02T08:59:50.029Z</time></trkpt><trkpt lat="45.7542552" lon="8.966928"><ele>371.0</ele><time>2026-05-02T09:00:01.025Z</time></trkpt><trkpt lat="45.754289" lon="8.9668314"><ele>371.0</ele><time>2026-05-02T09:00:06.064Z</time></trkpt><trkpt lat="45.7542953" lon="8.9667388"><ele>371.0</ele><time>2026-05-02T09:00:12.019Z</time></trkpt><trkpt lat="45.7543043" lon="8.96664"><ele>371.0</ele><time>2026-05-02T09:00:19.114Z</time></trkpt><trkpt lat="45.7542891" lon="8.966546"><ele>371.0</ele><time>2026-05-02T09:00:25.997Z</time></trkpt><trkpt lat="45.7542944" lon="8.9664527"><ele>371.7142857142857</ele><time>2026-05-02T09:00:35.98Z</time></trkpt><trkpt lat="45.754342" lon="8.9663823"><ele>372.42857142857144</ele><time>2026-05-02T09:00:42.397Z</time></trkpt><trkpt lat="45.7543929" lon="8.9663205"><ele>373.1428571428571</ele><time>2026-05-02T09:00:47.938Z</time></trkpt><trkpt lat="45.7544382" lon="8.9662511"><ele>373.8571428571429</ele><time>2026-05-02T09:00:51.997Z</time></trkpt><trkpt lat="45.7544846" lon="8.9661785"><ele>374.57142857142856</ele><time>2026-05-02T09:00:57.032Z</time></trkpt><trkpt lat="45.7545245" lon="8.9661037"><ele>375.2857142857143</ele><time>2026-05-02T09:01:08.029Z</time></trkpt><trkpt lat="45.7545333" lon="8.9659697"><ele>376.0</ele><time>2026-05-02T09:01:13.998Z</time></trkpt><trkpt lat="45.7545499" lon="8.965876"><ele>377.0</ele><time>2026-05-02T09:01:19.024Z</time></trkpt><trkpt lat="45.7546129" lon="8.9658161"><ele>378.0</ele><time>2026-05-02T09:01:25.095Z</time></trkpt><trkpt lat="45.7546777" lon="8.9658033"><ele>379.0</ele><time>2026-05-02T09:01:31.051Z</time></trkpt><trkpt lat="45.7547259" lon="8.9657366"><ele>380.0</ele><time>2026-05-02T09:01:38.037Z</time></trkpt><trkpt lat="45.7547729" lon="8.9656643"><ele>381.0</ele><time>2026-05-02T09:01:43.077Z</time></trkpt><trkpt lat="45.7548148" lon="8.9655923"><ele>382.0</ele><time>2026-05-02T09:01:50.064Z</time></trkpt><trkpt lat="45.7548615" lon="8.9655309"><ele>383.0</ele><time>2026-05-02T09:01:54.072Z</time></trkpt><trkpt lat="45.754917" lon="8.9654685"><ele>383.0</ele><time>2026-05-02T09:02:00.938Z</time></trkpt><trkpt lat="45.754974" lon="8.9654231"><ele>383.0</ele><time>2026-05-02T09:02:07.015Z</time></trkpt><trkpt lat="45.7550448" lon="8.9653222"><ele>383.0</ele><time>2026-05-02T09:02:11.567Z</time></trkpt><trkpt lat="45.7550878" lon="8.9652289"><ele>383.0</ele><time>2026-05-02T09:02:14.001Z</time></trkpt><trkpt lat="45.7551298" lon="8.9651539"><ele>383.0</ele><time>2026-05-02T09:02:18.011Z</time></trkpt><trkpt lat="45.7551891" lon="8.9652397"><ele>383.0</ele><time>2026-05-02T09:02:45.034Z</time></trkpt><trkpt lat="45.7552296" lon="8.9653129"><ele>383.1428571428571</ele><time>2026-05-02T09:02:49.933Z</time></trkpt><trkpt lat="45.75528" lon="8.9653685"><ele>383.2857142857143</ele><time>2026-05-02T09:02:55.006Z</time></trkpt><trkpt lat="45.7553275" lon="8.9654354"><ele>383.42857142857144</ele><time>2026-05-02T09:03:01.006Z</time></trkpt><trkpt lat="45.7553863" lon="8.9654767"><ele>383.57142857142856</ele><time>2026-05-02T09:03:07.115Z</time></trkpt><trkpt lat="45.7554543" lon="8.9654599"><ele>383.7142857142857</ele><time>2026-05-02T09:03:14.019Z</time></trkpt><trkpt lat="45.7555291" lon="8.9654484"><ele>383.85714285714283</ele><time>2026-05-02T09:03:20.089Z</time></trkpt><trkpt lat="45.7555969" lon="8.9654354"><ele>384.0</ele><time>2026-05-02T09:03:31.954Z</time></trkpt><trkpt lat="45.755661" lon="8.9654106"><ele>383.99999999999994</ele><time>2026-05-02T09:03:36.956Z</time></trkpt><trkpt lat="45.7557367" lon="8.965389"><ele>384.0</ele><time>2026-05-02T09:03:42.04Z</time></trkpt><trkpt lat="45.755807" lon="8.9653566"><ele>384.0</ele><time>2026-05-02T09:03:47.005Z</time></trkpt><trkpt lat="45.7558722" lon="8.9653379"><ele>384.0</ele><time>2026-05-02T09:03:52.998Z</time></trkpt><trkpt lat="45.7559328" lon="8.9653127"><ele>384.0</ele><time>2026-05-02T09:03:58.141Z</time></trkpt><trkpt lat="45.7559987" lon="8.9652702"><ele>383.99999999999994</ele><time>2026-05-02T09:04:04.779Z</time></trkpt><trkpt lat="45.7560509" lon="8.9652165"><ele>384.0</ele><time>2026-05-02T09:04:10.026Z</time></trkpt><trkpt lat="45.7561058" lon="8.9651676"><ele>384.1428571428571</ele><time>2026-05-02T09:04:15.031Z</time></trkpt><trkpt lat="45.7561625" lon="8.9651019"><ele>384.2857142857143</ele><time>2026-05-02T09:04:19.913Z</time></trkpt><trkpt lat="45.756213" lon="8.9650403"><ele>384.42857142857144</ele><time>2026-05-02T09:04:25.031Z</time></trkpt><trkpt lat="45.7562766" lon="8.9649859"><ele>384.57142857142856</ele><time>2026-05-02T09:04:30.07Z</time></trkpt><trkpt lat="45.7563317" lon="8.9649268"><ele>384.7142857142857</ele><time>2026-05-02T09:04:36.375Z</time></trkpt><trkpt lat="45.7563953" lon="8.9648723"><ele>384.85714285714283</ele><time>2026-05-02T09:04:42.891Z</time></trkpt><trkpt lat="45.7564539" lon="8.9648217"><ele>385.0</ele><time>2026-05-02T09:04:47.936Z</time></trkpt><trkpt lat="45.7565133" lon="8.9647874"><ele>385.33333333333337</ele><time>2026-05-02T09:04:54.008Z</time></trkpt><trkpt lat="45.7565914" lon="8.9647985"><ele>385.6666666666667</ele><time>2026-05-02T09:05:01.316Z</time></trkpt><trkpt lat="45.7566555" lon="8.9647874"><ele>386.0</ele><time>2026-05-02T09:05:06.092Z</time></trkpt><trkpt lat="45.7567321" lon="8.9647887"><ele>386.33333333333337</ele><time>2026-05-02T09:05:10.998Z</time></trkpt><trkpt lat="45.7567954" lon="8.9648002"><ele>386.6666666666667</ele><time>2026-05-02T09:05:17.017Z</time></trkpt><trkpt lat="45.7568679" lon="8.9648733"><ele>387.0</ele><time>2026-05-02T09:05:47.038Z</time></trkpt><trkpt lat="45.756883" lon="8.964997"><ele>387.5</ele><time>2026-05-02T09:06:31.019Z</time></trkpt><trkpt lat="45.7569038" lon="8.9650869"><ele>388.0</ele><time>2026-05-02T09:06:36.086Z</time></trkpt><trkpt lat="45.7569374" lon="8.9651724"><ele>388.5</ele><time>2026-05-02T09:06:41.928Z</time></trkpt><trkpt lat="45.7569488" lon="8.9652637"><ele>389.0</ele><time>2026-05-02T09:06:46.996Z</time></trkpt><trkpt lat="45.756991" lon="8.9653544"><ele>389.5</ele><time>2026-05-02T09:06:51.997Z</time></trkpt><trkpt lat="45.7571197" lon="8.9653955"><ele>390.0</ele><time>2026-05-02T09:07:21.998Z</time></trkpt><trkpt lat="45.7571984" lon="8.9653343"><ele>390.0</ele><time>2026-05-02T09:07:57.493Z</time></trkpt><trkpt lat="45.7572466" lon="8.9654054"><ele>390.0</ele><time>2026-05-02T09:08:05.911Z</time></trkpt><trkpt lat="45.7572988" lon="8.9654635"><ele>390.0</ele><time>2026-05-02T09:08:12.038Z</time></trkpt><trkpt lat="45.7573703" lon="8.9654704"><ele>390.0</ele><time>2026-05-02T09:08:17.998Z</time></trkpt><trkpt lat="45.7574338" lon="8.9654533"><ele>390.0</ele><time>2026-05-02T09:08:22.956Z</time></trkpt><trkpt lat="45.7575078" lon="8.9654183"><ele>390.0</ele><time>2026-05-02T09:08:32.015Z</time></trkpt><trkpt lat="45.7575649" lon="8.9653739"><ele>390.0</ele><time>2026-05-02T09:08:38.038Z</time></trkpt><trkpt lat="45.7576305" lon="8.9653228"><ele>390.0</ele><time>2026-05-02T09:08:43.078Z</time></trkpt><trkpt lat="45.7576909" lon="8.965292"><ele>390.0</ele><time>2026-05-02T09:08:49.95Z</time></trkpt><trkpt lat="45.7577319" lon="8.9653639"><ele>390.0</ele><time>2026-05-02T09:09:05.998Z</time></trkpt><trkpt lat="45.7577304" lon="8.9654632"><ele>390.0</ele><time>2026-05-02T09:09:16.999Z</time></trkpt><trkpt lat="45.7577131" lon="8.9655624"><ele>390.0</ele><time>2026-05-02T09:09:23.998Z</time></trkpt><trkpt lat="45.7576917" lon="8.9656517"><ele>390.0</ele><time>2026-05-02T09:09:31.114Z</time></trkpt><trkpt lat="45.757673" lon="8.9657545"><ele>390.0</ele><time>2026-05-02T09:09:37.841Z</time></trkpt><trkpt lat="45.7576631" lon="8.9658528"><ele>389.0</ele><time>2026-05-02T09:09:42.998Z</time></trkpt><trkpt lat="45.7576544" lon="8.9659511"><ele>388.0</ele><time>2026-05-02T09:09:48.063Z</time></trkpt><trkpt lat="45.7576451" lon="8.9660478"><ele>387.0</ele><time>2026-05-02T09:09:52.981Z</time></trkpt><trkpt lat="45.7576335" lon="8.9661518"><ele>386.0</ele><time>2026-05-02T09:09:58.034Z</time></trkpt><trkpt lat="45.757608" lon="8.9662396"><ele>385.0</ele><time>2026-05-02T09:10:04.053Z</time></trkpt><trkpt lat="45.7575877" lon="8.9663383"><ele>384.0</ele><time>2026-05-02T09:10:11.949Z</time></trkpt><trkpt lat="45.7575716" lon="8.9664405"><ele>383.0</ele><time>2026-05-02T09:10:18.026Z</time></trkpt><trkpt lat="45.7575273" lon="8.9665292"><ele>383.0</ele><time>2026-05-02T09:10:24.094Z</time></trkpt><trkpt lat="45.7574531" lon="8.9665923"><ele>383.0</ele><time>2026-05-02T09:10:34.063Z</time></trkpt><trkpt lat="45.7573923" lon="8.9666381"><ele>383.0</ele><time>2026-05-02T09:11:16.098Z</time></trkpt><trkpt lat="45.7573744" lon="8.9667297"><ele>383.0</ele><time>2026-05-02T09:11:19.076Z</time></trkpt><trkpt lat="45.757392" lon="8.9668328"><ele>383.0</ele><time>2026-05-02T09:11:25.998Z</time></trkpt><trkpt lat="45.7574538" lon="8.9668549"><ele>383.0</ele><time>2026-05-02T09:11:34.081Z</time></trkpt><trkpt lat="45.7575065" lon="8.9669044"><ele>383.0</ele><time>2026-05-02T09:11:41.068Z</time></trkpt><trkpt lat="45.7575573" lon="8.9669586"><ele>382.57142857142856</ele><time>2026-05-02T09:11:47.039Z</time></trkpt><trkpt lat="45.7576169" lon="8.9670035"><ele>382.1428571428571</ele><time>2026-05-02T09:11:52.999Z</time></trkpt><trkpt lat="45.757637" lon="8.9670939"><ele>381.7142857142857</ele><time>2026-05-02T09:11:59.05Z</time></trkpt><trkpt lat="45.7576499" lon="8.9671943"><ele>381.2857142857143</ele><time>2026-05-02T09:12:06.114Z</time></trkpt><trkpt lat="45.7576701" lon="8.9672802"><ele>380.8571428571429</ele><time>2026-05-02T09:12:14.999Z</time></trkpt><trkpt lat="45.7576639" lon="8.9673808"><ele>380.42857142857144</ele><time>2026-05-02T09:12:23.103Z</time></trkpt><trkpt lat="45.7576687" lon="8.9674801"><ele>380.0</ele><time>2026-05-02T09:12:30.173Z</time></trkpt><trkpt lat="45.7576625" lon="8.9675717"><ele>379.7142857142857</ele><time>2026-05-02T09:12:36.046Z</time></trkpt><trkpt lat="45.7576589" lon="8.9676649"><ele>379.42857142857144</ele><time>2026-05-02T09:12:41.094Z</time></trkpt><trkpt lat="45.7576614" lon="8.9677732"><ele>379.1428571428571</ele><time>2026-05-02T09:12:47.098Z</time></trkpt><trkpt lat="45.7576832" lon="8.9678784"><ele>378.8571428571429</ele><time>2026-05-02T09:12:53.073Z</time></trkpt><trkpt lat="45.757682" lon="8.9679723"><ele>378.57142857142856</ele><time>2026-05-02T09:12:58.037Z</time></trkpt><trkpt lat="45.7576692" lon="8.9680725"><ele>378.2857142857143</ele><time>2026-05-02T09:13:03.997Z</time></trkpt><trkpt lat="45.7576608" lon="8.968181"><ele>378.0</ele><time>2026-05-02T09:13:09.999Z</time></trkpt><trkpt lat="45.7576677" lon="8.9682712"><ele>378.0</ele><time>2026-05-02T09:13:15.103Z</time></trkpt><trkpt lat="45.7577158" lon="8.9683336"><ele>378.0</ele><time>2026-05-02T09:13:20.931Z</time></trkpt><trkpt lat="45.7577567" lon="8.9684261"><ele>378.0</ele><time>2026-05-02T09:13:24.999Z</time></trkpt><trkpt lat="45.7578086" lon="8.9684806"><ele>378.0</ele><time>2026-05-02T09:13:28.981Z</time></trkpt><trkpt lat="45.757876" lon="8.9684979"><ele>378.0</ele><time>2026-05-02T09:13:34.002Z</time></trkpt><trkpt lat="45.7579469" lon="8.968525"><ele>378.0</ele><time>2026-05-02T09:13:39.997Z</time></trkpt><trkpt lat="45.7580118" lon="8.9685237"><ele>378.0</ele><time>2026-05-02T09:13:46.028Z</time></trkpt><trkpt lat="45.7580785" lon="8.9685639"><ele>378.0</ele><time>2026-05-02T09:13:52.374Z</time></trkpt><trkpt lat="45.7581425" lon="8.9685804"><ele>378.0</ele><time>2026-05-02T09:13:57.793Z</time></trkpt><trkpt lat="45.7582157" lon="8.9685794"><ele>378.0</ele><time>2026-05-02T09:14:04.074Z</time></trkpt><trkpt lat="45.7582855" lon="8.968587"><ele>378.0</ele><time>2026-05-02T09:14:08.792Z</time></trkpt><trkpt lat="45.7583621" lon="8.9685911"><ele>378.0</ele><time>2026-05-02T09:14:14.065Z</time></trkpt><trkpt lat="45.7584352" lon="8.9685824"><ele>378.0</ele><time>2026-05-02T09:14:19.015Z</time></trkpt><trkpt lat="45.7584994" lon="8.9685857"><ele>378.0</ele><time>2026-05-02T09:14:23.027Z</time></trkpt><trkpt lat="45.7585698" lon="8.9685773"><ele>378.0</ele><time>2026-05-02T09:14:27.918Z</time></trkpt><trkpt lat="45.758641" lon="8.9685416"><ele>378.0</ele><time>2026-05-02T09:14:34.039Z</time></trkpt><trkpt lat="45.7587104" lon="8.9685137"><ele>378.0</ele><time>2026-05-02T09:14:39.056Z</time></trkpt><trkpt lat="45.7587788" lon="8.9684795"><ele>378.0</ele><time>2026-05-02T09:14:43.996Z</time></trkpt><trkpt lat="45.7588379" lon="8.9684436"><ele>378.0</ele><time>2026-05-02T09:14:49.024Z</time></trkpt><trkpt lat="45.7588964" lon="8.968389"><ele>378.0</ele><time>2026-05-02T09:14:53.975Z</time></trkpt><trkpt lat="45.7589669" lon="8.9683427"><ele>378.0</ele><time>2026-05-02T09:15:00.02Z</time></trkpt><trkpt lat="45.7590278" lon="8.968298"><ele>378.42857142857144</ele><time>2026-05-02T09:15:12.996Z</time></trkpt><trkpt lat="45.7590979" lon="8.9682768"><ele>378.8571428571429</ele><time>2026-05-02T09:15:19.033Z</time></trkpt><trkpt lat="45.7591675" lon="8.9682631"><ele>379.2857142857143</ele><time>2026-05-02T09:15:24.999Z</time></trkpt><trkpt lat="45.7592322" lon="8.9682364"><ele>379.7142857142857</ele><time>2026-05-02T09:15:31.054Z</time></trkpt><trkpt lat="45.7592985" lon="8.9682015"><ele>380.14285714285717</ele><time>2026-05-02T09:15:38.045Z</time></trkpt><trkpt lat="45.7593672" lon="8.9681665"><ele>380.57142857142856</ele><time>2026-05-02T09:15:45.045Z</time></trkpt><trkpt lat="45.7594308" lon="8.9681249"><ele>381.0</ele><time>2026-05-02T09:15:51.104Z</time></trkpt><trkpt lat="45.7594949" lon="8.9681819"><ele>385.0</ele><time>2026-05-02T09:16:22.03Z</time></trkpt><trkpt lat="45.7594319" lon="8.9682232"><ele>385.0</ele><time>2026-05-02T09:16:29.998Z</time></trkpt></trkseg></trk></gpx>